<?xml version="1.0" encoding="UTF-8" standalone="no" ?>
<gpx xmlns="http://www.topografix.com/GPX/1/1" xmlns:xsi="http://www.w3.org/2001/XMLSchema-instance" xsi:schemaLocation="http://www.topografix.com/GPX/1/1 http://www.topografix.com/GPX/1/1/gpx.xsd" version="1.1" creator="VisuGPX - https://www.visugpx.com">
  <metadata>
    <name>Mont Bayon - Les Cyprès des Evêques - St-Maurice - Les Faysses - Le Laquet - Grand Alizier sur TraceDeTrail.fr</name>
  </metadata>
  <trk>
    <name><![CDATA[Mont Bayon - Les Cyprès des Evêques - St-Maurice - Les Faysses - Le Laquet - Grand Alizier sur TraceDeTrail.fr]]></name>
    <trkseg>
      <trkpt lat="44.20808" lon="5.0245">
        <ele>236</ele>
        <time>2000-1-1T3:24:37.000Z</time>
      </trkpt>
      <trkpt lat="44.20804" lon="5.02444">
        <ele>233.4</ele>
        <time>2000-1-1T3:24:47.000Z</time>
      </trkpt>
      <trkpt lat="44.2079" lon="5.0243">
        <ele>238</ele>
        <time>2000-1-1T3:24:57.000Z</time>
      </trkpt>
      <trkpt lat="44.20775" lon="5.02421">
        <ele>234.4</ele>
        <time>2000-1-1T3:25:07.000Z</time>
      </trkpt>
      <trkpt lat="44.20762" lon="5.02398">
        <ele>236</ele>
        <time>2000-1-1T3:25:17.000Z</time>
      </trkpt>
      <trkpt lat="44.20747" lon="5.02378">
        <ele>241</ele>
        <time>2000-1-1T3:25:27.000Z</time>
      </trkpt>
      <trkpt lat="44.20732" lon="5.02361">
        <ele>243</ele>
        <time>2000-1-1T3:25:37.000Z</time>
      </trkpt>
      <trkpt lat="44.20717" lon="5.02347">
        <ele>243.8</ele>
        <time>2000-1-1T3:25:47.000Z</time>
      </trkpt>
      <trkpt lat="44.20713" lon="5.02344">
        <ele>245</ele>
        <time>2000-1-1T3:25:57.000Z</time>
      </trkpt>
      <trkpt lat="44.20708" lon="5.02341">
        <ele>244.7</ele>
        <time>2000-1-1T3:26:07.000Z</time>
      </trkpt>
      <trkpt lat="44.20695" lon="5.02324">
        <ele>244</ele>
        <time>2000-1-1T3:26:17.000Z</time>
      </trkpt>
      <trkpt lat="44.20672" lon="5.02303">
        <ele>244</ele>
        <time>2000-1-1T3:26:27.000Z</time>
      </trkpt>
      <trkpt lat="44.20662" lon="5.02296">
        <ele>244.9</ele>
        <time>2000-1-1T3:26:37.000Z</time>
      </trkpt>
      <trkpt lat="44.20664" lon="5.02298">
        <ele>245.1</ele>
        <time>2000-1-1T3:26:47.000Z</time>
      </trkpt>
      <trkpt lat="44.20678" lon="5.02313">
        <ele>244</ele>
        <time>2000-1-1T3:26:57.000Z</time>
      </trkpt>
      <trkpt lat="44.20707" lon="5.02351">
        <ele>245</ele>
        <time>2000-1-1T3:27:07.000Z</time>
      </trkpt>
      <trkpt lat="44.2072" lon="5.02372">
        <ele>247</ele>
        <time>2000-1-1T3:27:17.000Z</time>
      </trkpt>
      <trkpt lat="44.20732" lon="5.02395">
        <ele>253</ele>
        <time>2000-1-1T3:27:27.000Z</time>
      </trkpt>
      <trkpt lat="44.20753" lon="5.02445">
        <ele>255</ele>
        <time>2000-1-1T3:27:37.000Z</time>
      </trkpt>
      <trkpt lat="44.20759" lon="5.02475">
        <ele>261</ele>
        <time>2000-1-1T3:27:47.000Z</time>
      </trkpt>
      <trkpt lat="44.2077" lon="5.02501">
        <ele>259</ele>
        <time>2000-1-1T3:27:57.000Z</time>
      </trkpt>
      <trkpt lat="44.20773" lon="5.02505">
        <ele>260.5</ele>
        <time>2000-1-1T3:28:07.000Z</time>
      </trkpt>
      <trkpt lat="44.20784" lon="5.0254">
        <ele>263</ele>
        <time>2000-1-1T3:28:17.000Z</time>
      </trkpt>
      <trkpt lat="44.2079" lon="5.02592">
        <ele>264</ele>
        <time>2000-1-1T3:28:27.000Z</time>
      </trkpt>
      <trkpt lat="44.20792" lon="5.02623">
        <ele>261</ele>
        <time>2000-1-1T3:28:37.000Z</time>
      </trkpt>
      <trkpt lat="44.20795" lon="5.02644">
        <ele>254.2</ele>
        <time>2000-1-1T3:28:47.000Z</time>
      </trkpt>
      <trkpt lat="44.20794" lon="5.02667">
        <ele>258</ele>
        <time>2000-1-1T3:28:57.000Z</time>
      </trkpt>
      <trkpt lat="44.20793" lon="5.02671">
        <ele>253.9</ele>
        <time>2000-1-1T3:29:07.000Z</time>
      </trkpt>
      <trkpt lat="44.20786" lon="5.02693">
        <ele>254</ele>
        <time>2000-1-1T3:29:17.000Z</time>
      </trkpt>
      <trkpt lat="44.20787" lon="5.02696">
        <ele>255.8</ele>
        <time>2000-1-1T3:29:27.000Z</time>
      </trkpt>
      <trkpt lat="44.2078" lon="5.02735">
        <ele>255</ele>
        <time>2000-1-1T3:29:37.000Z</time>
      </trkpt>
      <trkpt lat="44.20782" lon="5.02771">
        <ele>257</ele>
        <time>2000-1-1T3:29:47.000Z</time>
      </trkpt>
      <trkpt lat="44.20787" lon="5.02804">
        <ele>258</ele>
        <time>2000-1-1T3:29:57.000Z</time>
      </trkpt>
      <trkpt lat="44.20785" lon="5.02829">
        <ele>262.1</ele>
        <time>2000-1-1T3:30:07.000Z</time>
      </trkpt>
      <trkpt lat="44.20773" lon="5.02834">
        <ele>259</ele>
        <time>2000-1-1T3:30:17.000Z</time>
      </trkpt>
      <trkpt lat="44.20748" lon="5.02836">
        <ele>261</ele>
        <time>2000-1-1T3:30:27.000Z</time>
      </trkpt>
      <trkpt lat="44.20727" lon="5.02828">
        <ele>270</ele>
        <time>2000-1-1T3:30:37.000Z</time>
      </trkpt>
      <trkpt lat="44.20706" lon="5.02818">
        <ele>275</ele>
        <time>2000-1-1T3:30:47.000Z</time>
      </trkpt>
      <trkpt lat="44.2067" lon="5.02822">
        <ele>275</ele>
        <time>2000-1-1T3:30:57.000Z</time>
      </trkpt>
      <trkpt lat="44.20669" lon="5.02823">
        <ele>275.7</ele>
        <time>2000-1-1T3:31:07.000Z</time>
      </trkpt>
      <trkpt lat="44.20667" lon="5.02827">
        <ele>275.9</ele>
        <time>2000-1-1T3:31:17.000Z</time>
      </trkpt>
      <trkpt lat="44.20667" lon="5.02843">
        <ele>277</ele>
        <time>2000-1-1T3:31:27.000Z</time>
      </trkpt>
      <trkpt lat="44.20664" lon="5.02861">
        <ele>275</ele>
        <time>2000-1-1T3:31:37.000Z</time>
      </trkpt>
      <trkpt lat="44.20661" lon="5.02867">
        <ele>280.4</ele>
        <time>2000-1-1T3:31:47.000Z</time>
      </trkpt>
      <trkpt lat="44.20658" lon="5.0287">
        <ele>281.2</ele>
        <time>2000-1-1T3:31:57.000Z</time>
      </trkpt>
      <trkpt lat="44.20641" lon="5.0288">
        <ele>275</ele>
        <time>2000-1-1T3:32:07.000Z</time>
      </trkpt>
      <trkpt lat="44.20636" lon="5.02887">
        <ele>285.6</ele>
        <time>2000-1-1T3:32:17.000Z</time>
      </trkpt>
      <trkpt lat="44.2063" lon="5.02907">
        <ele>275</ele>
        <time>2000-1-1T3:32:27.000Z</time>
      </trkpt>
      <trkpt lat="44.20625" lon="5.02926">
        <ele>291.4</ele>
        <time>2000-1-1T3:32:37.000Z</time>
      </trkpt>
      <trkpt lat="44.20626" lon="5.02935">
        <ele>281</ele>
        <time>2000-1-1T3:32:47.000Z</time>
      </trkpt>
      <trkpt lat="44.20627" lon="5.02939">
        <ele>293.7</ele>
        <time>2000-1-1T3:32:57.000Z</time>
      </trkpt>
      <trkpt lat="44.20629" lon="5.02942">
        <ele>294.7</ele>
        <time>2000-1-1T3:33:07.000Z</time>
      </trkpt>
      <trkpt lat="44.2063" lon="5.02946">
        <ele>295.4</ele>
        <time>2000-1-1T3:33:17.000Z</time>
      </trkpt>
      <trkpt lat="44.20631" lon="5.02965">
        <ele>298</ele>
        <time>2000-1-1T3:33:27.000Z</time>
      </trkpt>
      <trkpt lat="44.20629" lon="5.02986">
        <ele>301.7</ele>
        <time>2000-1-1T3:33:37.000Z</time>
      </trkpt>
      <trkpt lat="44.20623" lon="5.02999">
        <ele>300</ele>
        <time>2000-1-1T3:33:47.000Z</time>
      </trkpt>
      <trkpt lat="44.20622" lon="5.03">
        <ele>302.5</ele>
        <time>2000-1-1T3:33:57.000Z</time>
      </trkpt>
      <trkpt lat="44.20612" lon="5.03016">
        <ele>305.6</ele>
        <time>2000-1-1T3:34:07.000Z</time>
      </trkpt>
      <trkpt lat="44.20608" lon="5.03039">
        <ele>303</ele>
        <time>2000-1-1T3:34:17.000Z</time>
      </trkpt>
      <trkpt lat="44.20612" lon="5.03062">
        <ele>317.5</ele>
        <time>2000-1-1T3:34:27.000Z</time>
      </trkpt>
      <trkpt lat="44.20621" lon="5.03083">
        <ele>312</ele>
        <time>2000-1-1T3:34:37.000Z</time>
      </trkpt>
      <trkpt lat="44.20629" lon="5.03089">
        <ele>320</ele>
        <time>2000-1-1T3:34:47.000Z</time>
      </trkpt>
      <trkpt lat="44.20642" lon="5.03109">
        <ele>328</ele>
        <time>2000-1-1T3:34:57.000Z</time>
      </trkpt>
      <trkpt lat="44.20663" lon="5.03135">
        <ele>329</ele>
        <time>2000-1-1T3:35:07.000Z</time>
      </trkpt>
      <trkpt lat="44.20663" lon="5.03158">
        <ele>324.7</ele>
        <time>2000-1-1T3:35:17.000Z</time>
      </trkpt>
      <trkpt lat="44.20658" lon="5.03162">
        <ele>330</ele>
        <time>2000-1-1T3:35:27.000Z</time>
      </trkpt>
      <trkpt lat="44.20646" lon="5.03168">
        <ele>323.7</ele>
        <time>2000-1-1T3:35:37.000Z</time>
      </trkpt>
      <trkpt lat="44.20627" lon="5.03175">
        <ele>330</ele>
        <time>2000-1-1T3:35:47.000Z</time>
      </trkpt>
      <trkpt lat="44.20606" lon="5.03178">
        <ele>330</ele>
        <time>2000-1-1T3:35:57.000Z</time>
      </trkpt>
      <trkpt lat="44.20581" lon="5.03181">
        <ele>329</ele>
        <time>2000-1-1T3:36:07.000Z</time>
      </trkpt>
      <trkpt lat="44.20564" lon="5.03178">
        <ele>331.3</ele>
        <time>2000-1-1T3:36:17.000Z</time>
      </trkpt>
      <trkpt lat="44.20558" lon="5.03183">
        <ele>332</ele>
        <time>2000-1-1T3:36:27.000Z</time>
      </trkpt>
      <trkpt lat="44.20551" lon="5.03183">
        <ele>333.8</ele>
        <time>2000-1-1T3:36:37.000Z</time>
      </trkpt>
      <trkpt lat="44.20541" lon="5.03187">
        <ele>336.6</ele>
        <time>2000-1-1T3:36:47.000Z</time>
      </trkpt>
      <trkpt lat="44.2053" lon="5.03194">
        <ele>336</ele>
        <time>2000-1-1T3:36:57.000Z</time>
      </trkpt>
      <trkpt lat="44.20527" lon="5.03197">
        <ele>341.7</ele>
        <time>2000-1-1T3:37:07.000Z</time>
      </trkpt>
      <trkpt lat="44.20518" lon="5.03211">
        <ele>345.6</ele>
        <time>2000-1-1T3:37:17.000Z</time>
      </trkpt>
      <trkpt lat="44.20513" lon="5.03229">
        <ele>346</ele>
        <time>2000-1-1T3:37:27.000Z</time>
      </trkpt>
      <trkpt lat="44.20503" lon="5.03256">
        <ele>353</ele>
        <time>2000-1-1T3:37:37.000Z</time>
      </trkpt>
      <trkpt lat="44.20497" lon="5.03282">
        <ele>358</ele>
        <time>2000-1-1T3:37:47.000Z</time>
      </trkpt>
      <trkpt lat="44.20487" lon="5.03312">
        <ele>359</ele>
        <time>2000-1-1T3:37:57.000Z</time>
      </trkpt>
      <trkpt lat="44.20485" lon="5.0333">
        <ele>366.1</ele>
        <time>2000-1-1T3:38:07.000Z</time>
      </trkpt>
      <trkpt lat="44.20477" lon="5.03358">
        <ele>365</ele>
        <time>2000-1-1T3:38:17.000Z</time>
      </trkpt>
      <trkpt lat="44.20468" lon="5.03371">
        <ele>373.4</ele>
        <time>2000-1-1T3:38:27.000Z</time>
      </trkpt>
      <trkpt lat="44.20453" lon="5.0338">
        <ele>371</ele>
        <time>2000-1-1T3:38:37.000Z</time>
      </trkpt>
      <trkpt lat="44.20445" lon="5.03393">
        <ele>377.4</ele>
        <time>2000-1-1T3:38:47.000Z</time>
      </trkpt>
      <trkpt lat="44.2044" lon="5.03404">
        <ele>371</ele>
        <time>2000-1-1T3:38:57.000Z</time>
      </trkpt>
      <trkpt lat="44.2043" lon="5.03418">
        <ele>384.4</ele>
        <time>2000-1-1T3:39:07.000Z</time>
      </trkpt>
      <trkpt lat="44.2042" lon="5.03431">
        <ele>381</ele>
        <time>2000-1-1T3:39:17.000Z</time>
      </trkpt>
      <trkpt lat="44.204" lon="5.03436">
        <ele>383</ele>
        <time>2000-1-1T3:39:27.000Z</time>
      </trkpt>
      <trkpt lat="44.20394" lon="5.03439">
        <ele>388.6</ele>
        <time>2000-1-1T3:39:37.000Z</time>
      </trkpt>
      <trkpt lat="44.20385" lon="5.03441">
        <ele>389.6</ele>
        <time>2000-1-1T3:39:47.000Z</time>
      </trkpt>
      <trkpt lat="44.20376" lon="5.03455">
        <ele>389</ele>
        <time>2000-1-1T3:39:57.000Z</time>
      </trkpt>
      <trkpt lat="44.20365" lon="5.03464">
        <ele>397</ele>
        <time>2000-1-1T3:40:07.000Z</time>
      </trkpt>
      <trkpt lat="44.20356" lon="5.03477">
        <ele>396</ele>
        <time>2000-1-1T3:40:17.000Z</time>
      </trkpt>
      <trkpt lat="44.20349" lon="5.03482">
        <ele>401.8</ele>
        <time>2000-1-1T3:40:27.000Z</time>
      </trkpt>
      <trkpt lat="44.20344" lon="5.03483">
        <ele>402.4</ele>
        <time>2000-1-1T3:40:37.000Z</time>
      </trkpt>
      <trkpt lat="44.20307" lon="5.03502">
        <ele>407</ele>
        <time>2000-1-1T3:40:47.000Z</time>
      </trkpt>
      <trkpt lat="44.20294" lon="5.03507">
        <ele>412.9</ele>
        <time>2000-1-1T3:40:57.000Z</time>
      </trkpt>
      <trkpt lat="44.20282" lon="5.03513">
        <ele>412</ele>
        <time>2000-1-1T3:41:07.000Z</time>
      </trkpt>
      <trkpt lat="44.20268" lon="5.03517">
        <ele>419.3</ele>
        <time>2000-1-1T3:41:17.000Z</time>
      </trkpt>
      <trkpt lat="44.20258" lon="5.03523">
        <ele>428</ele>
        <time>2000-1-1T3:41:27.000Z</time>
      </trkpt>
      <trkpt lat="44.2025" lon="5.03532">
        <ele>424.8</ele>
        <time>2000-1-1T3:41:37.000Z</time>
      </trkpt>
      <trkpt lat="44.20245" lon="5.03557">
        <ele>427</ele>
        <time>2000-1-1T3:41:47.000Z</time>
      </trkpt>
      <trkpt lat="44.20245" lon="5.03562">
        <ele>428.6</ele>
        <time>2000-1-1T3:41:57.000Z</time>
      </trkpt>
      <trkpt lat="44.20243" lon="5.03565">
        <ele>428.5</ele>
        <time>2000-1-1T3:42:07.000Z</time>
      </trkpt>
      <trkpt lat="44.20242" lon="5.03566">
        <ele>428.4</ele>
        <time>2000-1-1T3:42:17.000Z</time>
      </trkpt>
      <trkpt lat="44.20238" lon="5.03565">
        <ele>428.1</ele>
        <time>2000-1-1T3:42:27.000Z</time>
      </trkpt>
      <trkpt lat="44.20228" lon="5.03561">
        <ele>427</ele>
        <time>2000-1-1T3:42:37.000Z</time>
      </trkpt>
      <trkpt lat="44.20213" lon="5.03556">
        <ele>427</ele>
        <time>2000-1-1T3:42:47.000Z</time>
      </trkpt>
      <trkpt lat="44.20208" lon="5.03556">
        <ele>426</ele>
        <time>2000-1-1T3:42:57.000Z</time>
      </trkpt>
      <trkpt lat="44.20205" lon="5.03558">
        <ele>427.1</ele>
        <time>2000-1-1T3:43:07.000Z</time>
      </trkpt>
      <trkpt lat="44.20187" lon="5.03557">
        <ele>425</ele>
        <time>2000-1-1T3:43:17.000Z</time>
      </trkpt>
      <trkpt lat="44.20179" lon="5.03558">
        <ele>427</ele>
        <time>2000-1-1T3:43:27.000Z</time>
      </trkpt>
      <trkpt lat="44.20176" lon="5.03562">
        <ele>427.1</ele>
        <time>2000-1-1T3:43:37.000Z</time>
      </trkpt>
      <trkpt lat="44.20171" lon="5.03564">
        <ele>427</ele>
        <time>2000-1-1T3:43:47.000Z</time>
      </trkpt>
      <trkpt lat="44.20153" lon="5.03564">
        <ele>423</ele>
        <time>2000-1-1T3:43:57.000Z</time>
      </trkpt>
      <trkpt lat="44.20131" lon="5.03566">
        <ele>423</ele>
        <time>2000-1-1T3:44:07.000Z</time>
      </trkpt>
      <trkpt lat="44.20103" lon="5.03563">
        <ele>423</ele>
        <time>2000-1-1T3:44:17.000Z</time>
      </trkpt>
      <trkpt lat="44.20076" lon="5.03573">
        <ele>422</ele>
        <time>2000-1-1T3:44:27.000Z</time>
      </trkpt>
      <trkpt lat="44.2006" lon="5.03576">
        <ele>423.1</ele>
        <time>2000-1-1T3:44:37.000Z</time>
      </trkpt>
      <trkpt lat="44.20041" lon="5.03566">
        <ele>422</ele>
        <time>2000-1-1T3:44:47.000Z</time>
      </trkpt>
      <trkpt lat="44.20038" lon="5.03562">
        <ele>420.8</ele>
        <time>2000-1-1T3:44:57.000Z</time>
      </trkpt>
      <trkpt lat="44.20032" lon="5.03559">
        <ele>420.4</ele>
        <time>2000-1-1T3:45:07.000Z</time>
      </trkpt>
      <trkpt lat="44.2002" lon="5.03549">
        <ele>420</ele>
        <time>2000-1-1T3:45:17.000Z</time>
      </trkpt>
      <trkpt lat="44.19994" lon="5.0354">
        <ele>419</ele>
        <time>2000-1-1T3:45:27.000Z</time>
      </trkpt>
      <trkpt lat="44.19984" lon="5.03543">
        <ele>416.6</ele>
        <time>2000-1-1T3:45:37.000Z</time>
      </trkpt>
      <trkpt lat="44.19966" lon="5.03545">
        <ele>419</ele>
        <time>2000-1-1T3:45:47.000Z</time>
      </trkpt>
      <trkpt lat="44.1996" lon="5.03543">
        <ele>416.4</ele>
        <time>2000-1-1T3:45:57.000Z</time>
      </trkpt>
      <trkpt lat="44.19957" lon="5.03544">
        <ele>416.2</ele>
        <time>2000-1-1T3:46:07.000Z</time>
      </trkpt>
      <trkpt lat="44.19952" lon="5.03544">
        <ele>416.3</ele>
        <time>2000-1-1T3:46:17.000Z</time>
      </trkpt>
      <trkpt lat="44.19946" lon="5.03545">
        <ele>418</ele>
        <time>2000-1-1T3:46:27.000Z</time>
      </trkpt>
      <trkpt lat="44.19942" lon="5.03541">
        <ele>415.8</ele>
        <time>2000-1-1T3:46:37.000Z</time>
      </trkpt>
      <trkpt lat="44.19938" lon="5.03543">
        <ele>414.3</ele>
        <time>2000-1-1T3:46:47.000Z</time>
      </trkpt>
      <trkpt lat="44.19934" lon="5.03546">
        <ele>413</ele>
        <time>2000-1-1T3:46:57.000Z</time>
      </trkpt>
      <trkpt lat="44.19932" lon="5.03547">
        <ele>412.1</ele>
        <time>2000-1-1T3:47:07.000Z</time>
      </trkpt>
      <trkpt lat="44.19913" lon="5.03548">
        <ele>407</ele>
        <time>2000-1-1T3:47:17.000Z</time>
      </trkpt>
      <trkpt lat="44.1991" lon="5.0355">
        <ele>405.1</ele>
        <time>2000-1-1T3:47:27.000Z</time>
      </trkpt>
      <trkpt lat="44.199" lon="5.03546">
        <ele>400.9</ele>
        <time>2000-1-1T3:47:37.000Z</time>
      </trkpt>
      <trkpt lat="44.19894" lon="5.03542">
        <ele>388</ele>
        <time>2000-1-1T3:47:47.000Z</time>
      </trkpt>
      <trkpt lat="44.1989" lon="5.03541">
        <ele>396.6</ele>
        <time>2000-1-1T3:47:57.000Z</time>
      </trkpt>
      <trkpt lat="44.19882" lon="5.03543">
        <ele>393.4</ele>
        <time>2000-1-1T3:48:07.000Z</time>
      </trkpt>
      <trkpt lat="44.19876" lon="5.03544">
        <ele>391.5</ele>
        <time>2000-1-1T3:48:17.000Z</time>
      </trkpt>
      <trkpt lat="44.19873" lon="5.03547">
        <ele>380</ele>
        <time>2000-1-1T3:48:27.000Z</time>
      </trkpt>
      <trkpt lat="44.19868" lon="5.03548">
        <ele>388.9</ele>
        <time>2000-1-1T3:48:37.000Z</time>
      </trkpt>
      <trkpt lat="44.19867" lon="5.03548">
        <ele>388.4</ele>
        <time>2000-1-1T3:48:47.000Z</time>
      </trkpt>
      <trkpt lat="44.19861" lon="5.03545">
        <ele>385.9</ele>
        <time>2000-1-1T3:48:57.000Z</time>
      </trkpt>
      <trkpt lat="44.19858" lon="5.03542">
        <ele>384.6</ele>
        <time>2000-1-1T3:49:07.000Z</time>
      </trkpt>
      <trkpt lat="44.19854" lon="5.03543">
        <ele>380</ele>
        <time>2000-1-1T3:49:17.000Z</time>
      </trkpt>
      <trkpt lat="44.1983" lon="5.03541">
        <ele>373</ele>
        <time>2000-1-1T3:49:27.000Z</time>
      </trkpt>
      <trkpt lat="44.19824" lon="5.03543">
        <ele>375.4</ele>
        <time>2000-1-1T3:49:37.000Z</time>
      </trkpt>
      <trkpt lat="44.19815" lon="5.03548">
        <ele>373.4</ele>
        <time>2000-1-1T3:49:47.000Z</time>
      </trkpt>
      <trkpt lat="44.19814" lon="5.03557">
        <ele>371</ele>
        <time>2000-1-1T3:49:57.000Z</time>
      </trkpt>
      <trkpt lat="44.19814" lon="5.03561">
        <ele>372.8</ele>
        <time>2000-1-1T3:50:07.000Z</time>
      </trkpt>
      <trkpt lat="44.19819" lon="5.0357">
        <ele>373.6</ele>
        <time>2000-1-1T3:50:17.000Z</time>
      </trkpt>
      <trkpt lat="44.1982" lon="5.03574">
        <ele>373.7</ele>
        <time>2000-1-1T3:50:27.000Z</time>
      </trkpt>
      <trkpt lat="44.19826" lon="5.0361">
        <ele>372</ele>
        <time>2000-1-1T3:50:37.000Z</time>
      </trkpt>
      <trkpt lat="44.1983" lon="5.03642">
        <ele>373</ele>
        <time>2000-1-1T3:50:47.000Z</time>
      </trkpt>
      <trkpt lat="44.19835" lon="5.03675">
        <ele>377</ele>
        <time>2000-1-1T3:50:57.000Z</time>
      </trkpt>
      <trkpt lat="44.19844" lon="5.037">
        <ele>379</ele>
        <time>2000-1-1T3:51:07.000Z</time>
      </trkpt>
      <trkpt lat="44.19857" lon="5.03721">
        <ele>378</ele>
        <time>2000-1-1T3:51:17.000Z</time>
      </trkpt>
      <trkpt lat="44.19876" lon="5.03743">
        <ele>377</ele>
        <time>2000-1-1T3:51:27.000Z</time>
      </trkpt>
      <trkpt lat="44.19887" lon="5.03765">
        <ele>376</ele>
        <time>2000-1-1T3:51:37.000Z</time>
      </trkpt>
      <trkpt lat="44.199" lon="5.03781">
        <ele>364.4</ele>
        <time>2000-1-1T3:51:47.000Z</time>
      </trkpt>
      <trkpt lat="44.19906" lon="5.03794">
        <ele>370</ele>
        <time>2000-1-1T3:51:57.000Z</time>
      </trkpt>
      <trkpt lat="44.19905" lon="5.0384">
        <ele>364</ele>
        <time>2000-1-1T3:52:07.000Z</time>
      </trkpt>
      <trkpt lat="44.19907" lon="5.03877">
        <ele>360</ele>
        <time>2000-1-1T3:52:17.000Z</time>
      </trkpt>
      <trkpt lat="44.19919" lon="5.03904">
        <ele>357</ele>
        <time>2000-1-1T3:52:27.000Z</time>
      </trkpt>
      <trkpt lat="44.19923" lon="5.03909">
        <ele>352.2</ele>
        <time>2000-1-1T3:52:37.000Z</time>
      </trkpt>
      <trkpt lat="44.19923" lon="5.03918">
        <ele>350.5</ele>
        <time>2000-1-1T3:52:47.000Z</time>
      </trkpt>
      <trkpt lat="44.19899" lon="5.03932">
        <ele>355</ele>
        <time>2000-1-1T3:52:57.000Z</time>
      </trkpt>
      <trkpt lat="44.19886" lon="5.0395">
        <ele>349</ele>
        <time>2000-1-1T3:53:07.000Z</time>
      </trkpt>
      <trkpt lat="44.19885" lon="5.03975">
        <ele>353</ele>
        <time>2000-1-1T3:53:17.000Z</time>
      </trkpt>
      <trkpt lat="44.19891" lon="5.04006">
        <ele>352</ele>
        <time>2000-1-1T3:53:27.000Z</time>
      </trkpt>
      <trkpt lat="44.1989" lon="5.04041">
        <ele>352</ele>
        <time>2000-1-1T3:53:37.000Z</time>
      </trkpt>
      <trkpt lat="44.19893" lon="5.04079">
        <ele>355</ele>
        <time>2000-1-1T3:53:47.000Z</time>
      </trkpt>
      <trkpt lat="44.19895" lon="5.0409">
        <ele>364.2</ele>
        <time>2000-1-1T3:53:57.000Z</time>
      </trkpt>
      <trkpt lat="44.19895" lon="5.04094">
        <ele>364.7</ele>
        <time>2000-1-1T3:54:07.000Z</time>
      </trkpt>
      <trkpt lat="44.1989" lon="5.04114">
        <ele>360</ele>
        <time>2000-1-1T3:54:17.000Z</time>
      </trkpt>
      <trkpt lat="44.19886" lon="5.04132">
        <ele>370.9</ele>
        <time>2000-1-1T3:54:27.000Z</time>
      </trkpt>
      <trkpt lat="44.19884" lon="5.04147">
        <ele>365</ele>
        <time>2000-1-1T3:54:37.000Z</time>
      </trkpt>
      <trkpt lat="44.19883" lon="5.04161">
        <ele>374.1</ele>
        <time>2000-1-1T3:54:47.000Z</time>
      </trkpt>
      <trkpt lat="44.19877" lon="5.04205">
        <ele>374</ele>
        <time>2000-1-1T3:54:57.000Z</time>
      </trkpt>
      <trkpt lat="44.19876" lon="5.04211">
        <ele>379.5</ele>
        <time>2000-1-1T3:55:07.000Z</time>
      </trkpt>
      <trkpt lat="44.19873" lon="5.04236">
        <ele>376</ele>
        <time>2000-1-1T3:55:17.000Z</time>
      </trkpt>
      <trkpt lat="44.19871" lon="5.04243">
        <ele>384.9</ele>
        <time>2000-1-1T3:55:27.000Z</time>
      </trkpt>
      <trkpt lat="44.19867" lon="5.04275">
        <ele>379</ele>
        <time>2000-1-1T3:55:37.000Z</time>
      </trkpt>
      <trkpt lat="44.19867" lon="5.04295">
        <ele>391.9</ele>
        <time>2000-1-1T3:55:47.000Z</time>
      </trkpt>
      <trkpt lat="44.19862" lon="5.04315">
        <ele>382</ele>
        <time>2000-1-1T3:55:57.000Z</time>
      </trkpt>
      <trkpt lat="44.19858" lon="5.04335">
        <ele>398.5</ele>
        <time>2000-1-1T3:56:07.000Z</time>
      </trkpt>
      <trkpt lat="44.19853" lon="5.04348">
        <ele>388</ele>
        <time>2000-1-1T3:56:17.000Z</time>
      </trkpt>
      <trkpt lat="44.19848" lon="5.04369">
        <ele>402.3</ele>
        <time>2000-1-1T3:56:27.000Z</time>
      </trkpt>
      <trkpt lat="44.19846" lon="5.04381">
        <ele>403</ele>
        <time>2000-1-1T3:56:37.000Z</time>
      </trkpt>
      <trkpt lat="44.19838" lon="5.04405">
        <ele>403</ele>
        <time>2000-1-1T3:56:47.000Z</time>
      </trkpt>
      <trkpt lat="44.19836" lon="5.04417">
        <ele>408</ele>
        <time>2000-1-1T3:56:57.000Z</time>
      </trkpt>
      <trkpt lat="44.19837" lon="5.04421">
        <ele>408.4</ele>
        <time>2000-1-1T3:57:07.000Z</time>
      </trkpt>
      <trkpt lat="44.19838" lon="5.04424">
        <ele>408.9</ele>
        <time>2000-1-1T3:57:17.000Z</time>
      </trkpt>
      <trkpt lat="44.19838" lon="5.0443">
        <ele>409.5</ele>
        <time>2000-1-1T3:57:27.000Z</time>
      </trkpt>
      <trkpt lat="44.19835" lon="5.0445">
        <ele>405</ele>
        <time>2000-1-1T3:57:37.000Z</time>
      </trkpt>
      <trkpt lat="44.19834" lon="5.04461">
        <ele>412.3</ele>
        <time>2000-1-1T3:57:47.000Z</time>
      </trkpt>
      <trkpt lat="44.19831" lon="5.04488">
        <ele>409</ele>
        <time>2000-1-1T3:57:57.000Z</time>
      </trkpt>
      <trkpt lat="44.1983" lon="5.04531">
        <ele>420</ele>
        <time>2000-1-1T3:58:07.000Z</time>
      </trkpt>
      <trkpt lat="44.19827" lon="5.04545">
        <ele>421.5</ele>
        <time>2000-1-1T3:58:17.000Z</time>
      </trkpt>
      <trkpt lat="44.19823" lon="5.04573">
        <ele>422</ele>
        <time>2000-1-1T3:58:27.000Z</time>
      </trkpt>
      <trkpt lat="44.19816" lon="5.04603">
        <ele>425</ele>
        <time>2000-1-1T3:58:37.000Z</time>
      </trkpt>
      <trkpt lat="44.19812" lon="5.04615">
        <ele>429</ele>
        <time>2000-1-1T3:58:47.000Z</time>
      </trkpt>
      <trkpt lat="44.19812" lon="5.04633">
        <ele>430</ele>
        <time>2000-1-1T3:58:57.000Z</time>
      </trkpt>
      <trkpt lat="44.19813" lon="5.04644">
        <ele>434</ele>
        <time>2000-1-1T3:59:07.000Z</time>
      </trkpt>
      <trkpt lat="44.1981" lon="5.04659">
        <ele>435.7</ele>
        <time>2000-1-1T3:59:17.000Z</time>
      </trkpt>
      <trkpt lat="44.19805" lon="5.04671">
        <ele>434</ele>
        <time>2000-1-1T3:59:27.000Z</time>
      </trkpt>
      <trkpt lat="44.19803" lon="5.04691">
        <ele>438.7</ele>
        <time>2000-1-1T3:59:37.000Z</time>
      </trkpt>
      <trkpt lat="44.19804" lon="5.04705">
        <ele>440</ele>
        <time>2000-1-1T3:59:47.000Z</time>
      </trkpt>
      <trkpt lat="44.19804" lon="5.04731">
        <ele>444.2</ele>
        <time>2000-1-1T3:59:57.000Z</time>
      </trkpt>
      <trkpt lat="44.19805" lon="5.04741">
        <ele>442</ele>
        <time>2000-1-1T4:00:07.000Z</time>
      </trkpt>
      <trkpt lat="44.19803" lon="5.04749">
        <ele>446.1</ele>
        <time>2000-1-1T4:00:17.000Z</time>
      </trkpt>
      <trkpt lat="44.19801" lon="5.04774">
        <ele>445</ele>
        <time>2000-1-1T4:00:27.000Z</time>
      </trkpt>
      <trkpt lat="44.19803" lon="5.04792">
        <ele>450.4</ele>
        <time>2000-1-1T4:00:37.000Z</time>
      </trkpt>
      <trkpt lat="44.19804" lon="5.04811">
        <ele>447</ele>
        <time>2000-1-1T4:00:47.000Z</time>
      </trkpt>
      <trkpt lat="44.19805" lon="5.0483">
        <ele>454.5</ele>
        <time>2000-1-1T4:00:57.000Z</time>
      </trkpt>
      <trkpt lat="44.19804" lon="5.04835">
        <ele>454.9</ele>
        <time>2000-1-1T4:01:07.000Z</time>
      </trkpt>
      <trkpt lat="44.198" lon="5.04855">
        <ele>449</ele>
        <time>2000-1-1T4:01:17.000Z</time>
      </trkpt>
      <trkpt lat="44.19792" lon="5.04875">
        <ele>456.6</ele>
        <time>2000-1-1T4:01:27.000Z</time>
      </trkpt>
      <trkpt lat="44.19786" lon="5.04894">
        <ele>451</ele>
        <time>2000-1-1T4:01:37.000Z</time>
      </trkpt>
      <trkpt lat="44.19783" lon="5.04909">
        <ele>458.8</ele>
        <time>2000-1-1T4:01:47.000Z</time>
      </trkpt>
      <trkpt lat="44.19777" lon="5.04926">
        <ele>452</ele>
        <time>2000-1-1T4:01:57.000Z</time>
      </trkpt>
      <trkpt lat="44.19772" lon="5.04938">
        <ele>460.1</ele>
        <time>2000-1-1T4:02:07.000Z</time>
      </trkpt>
      <trkpt lat="44.19768" lon="5.04949">
        <ele>460.6</ele>
        <time>2000-1-1T4:02:17.000Z</time>
      </trkpt>
      <trkpt lat="44.19761" lon="5.04964">
        <ele>455</ele>
        <time>2000-1-1T4:02:27.000Z</time>
      </trkpt>
      <trkpt lat="44.19757" lon="5.04971">
        <ele>461.9</ele>
        <time>2000-1-1T4:02:37.000Z</time>
      </trkpt>
      <trkpt lat="44.19755" lon="5.04976">
        <ele>462</ele>
        <time>2000-1-1T4:02:47.000Z</time>
      </trkpt>
      <trkpt lat="44.19754" lon="5.04981">
        <ele>462</ele>
        <time>2000-1-1T4:02:57.000Z</time>
      </trkpt>
      <trkpt lat="44.19748" lon="5.04995">
        <ele>456</ele>
        <time>2000-1-1T4:03:07.000Z</time>
      </trkpt>
      <trkpt lat="44.19741" lon="5.05003">
        <ele>462.6</ele>
        <time>2000-1-1T4:03:17.000Z</time>
      </trkpt>
      <trkpt lat="44.19726" lon="5.05031">
        <ele>458</ele>
        <time>2000-1-1T4:03:27.000Z</time>
      </trkpt>
      <trkpt lat="44.19712" lon="5.05053">
        <ele>459</ele>
        <time>2000-1-1T4:03:37.000Z</time>
      </trkpt>
      <trkpt lat="44.19693" lon="5.05078">
        <ele>465</ele>
        <time>2000-1-1T4:03:47.000Z</time>
      </trkpt>
      <trkpt lat="44.19678" lon="5.05097">
        <ele>467</ele>
        <time>2000-1-1T4:03:57.000Z</time>
      </trkpt>
      <trkpt lat="44.19672" lon="5.05106">
        <ele>466.9</ele>
        <time>2000-1-1T4:04:07.000Z</time>
      </trkpt>
      <trkpt lat="44.19666" lon="5.05114">
        <ele>467.3</ele>
        <time>2000-1-1T4:04:17.000Z</time>
      </trkpt>
      <trkpt lat="44.19657" lon="5.05125">
        <ele>469</ele>
        <time>2000-1-1T4:04:27.000Z</time>
      </trkpt>
      <trkpt lat="44.1964" lon="5.05141">
        <ele>469</ele>
        <time>2000-1-1T4:04:37.000Z</time>
      </trkpt>
      <trkpt lat="44.19627" lon="5.05152">
        <ele>471.6</ele>
        <time>2000-1-1T4:04:47.000Z</time>
      </trkpt>
      <trkpt lat="44.19612" lon="5.05164">
        <ele>473</ele>
        <time>2000-1-1T4:04:57.000Z</time>
      </trkpt>
      <trkpt lat="44.19607" lon="5.05172">
        <ele>473.2</ele>
        <time>2000-1-1T4:05:07.000Z</time>
      </trkpt>
      <trkpt lat="44.19601" lon="5.05178">
        <ele>474.4</ele>
        <time>2000-1-1T4:05:17.000Z</time>
      </trkpt>
      <trkpt lat="44.19597" lon="5.05189">
        <ele>478</ele>
        <time>2000-1-1T4:05:27.000Z</time>
      </trkpt>
      <trkpt lat="44.19593" lon="5.05201">
        <ele>476.3</ele>
        <time>2000-1-1T4:05:37.000Z</time>
      </trkpt>
      <trkpt lat="44.19588" lon="5.05215">
        <ele>482</ele>
        <time>2000-1-1T4:05:47.000Z</time>
      </trkpt>
      <trkpt lat="44.19583" lon="5.05237">
        <ele>478.1</ele>
        <time>2000-1-1T4:05:57.000Z</time>
      </trkpt>
      <trkpt lat="44.1958" lon="5.05248">
        <ele>482</ele>
        <time>2000-1-1T4:06:07.000Z</time>
      </trkpt>
      <trkpt lat="44.19579" lon="5.05254">
        <ele>479.4</ele>
        <time>2000-1-1T4:06:17.000Z</time>
      </trkpt>
      <trkpt lat="44.19579" lon="5.05268">
        <ele>480.3</ele>
        <time>2000-1-1T4:06:27.000Z</time>
      </trkpt>
      <trkpt lat="44.19582" lon="5.05328">
        <ele>482</ele>
        <time>2000-1-1T4:06:37.000Z</time>
      </trkpt>
      <trkpt lat="44.19581" lon="5.05341">
        <ele>484.4</ele>
        <time>2000-1-1T4:06:47.000Z</time>
      </trkpt>
      <trkpt lat="44.19581" lon="5.05349">
        <ele>485</ele>
        <time>2000-1-1T4:06:57.000Z</time>
      </trkpt>
      <trkpt lat="44.1958" lon="5.05366">
        <ele>484</ele>
        <time>2000-1-1T4:07:07.000Z</time>
      </trkpt>
      <trkpt lat="44.19579" lon="5.05383">
        <ele>487.2</ele>
        <time>2000-1-1T4:07:17.000Z</time>
      </trkpt>
      <trkpt lat="44.19579" lon="5.05418">
        <ele>488</ele>
        <time>2000-1-1T4:07:27.000Z</time>
      </trkpt>
      <trkpt lat="44.1958" lon="5.05426">
        <ele>488.8</ele>
        <time>2000-1-1T4:07:37.000Z</time>
      </trkpt>
      <trkpt lat="44.19585" lon="5.05445">
        <ele>491</ele>
        <time>2000-1-1T4:07:47.000Z</time>
      </trkpt>
      <trkpt lat="44.19589" lon="5.05463">
        <ele>491.7</ele>
        <time>2000-1-1T4:07:57.000Z</time>
      </trkpt>
      <trkpt lat="44.1959" lon="5.05472">
        <ele>493</ele>
        <time>2000-1-1T4:08:07.000Z</time>
      </trkpt>
      <trkpt lat="44.1959" lon="5.05477">
        <ele>492.3</ele>
        <time>2000-1-1T4:08:17.000Z</time>
      </trkpt>
      <trkpt lat="44.19592" lon="5.05491">
        <ele>492.8</ele>
        <time>2000-1-1T4:08:27.000Z</time>
      </trkpt>
      <trkpt lat="44.19593" lon="5.05502">
        <ele>494</ele>
        <time>2000-1-1T4:08:37.000Z</time>
      </trkpt>
      <trkpt lat="44.19595" lon="5.05515">
        <ele>493.7</ele>
        <time>2000-1-1T4:08:47.000Z</time>
      </trkpt>
      <trkpt lat="44.19596" lon="5.0553">
        <ele>495</ele>
        <time>2000-1-1T4:08:57.000Z</time>
      </trkpt>
      <trkpt lat="44.19598" lon="5.05544">
        <ele>494.5</ele>
        <time>2000-1-1T4:09:07.000Z</time>
      </trkpt>
      <trkpt lat="44.19603" lon="5.05579">
        <ele>497</ele>
        <time>2000-1-1T4:09:17.000Z</time>
      </trkpt>
      <trkpt lat="44.19608" lon="5.05607">
        <ele>499</ele>
        <time>2000-1-1T4:09:27.000Z</time>
      </trkpt>
      <trkpt lat="44.19614" lon="5.05629">
        <ele>498.1</ele>
        <time>2000-1-1T4:09:37.000Z</time>
      </trkpt>
      <trkpt lat="44.19621" lon="5.05644">
        <ele>499</ele>
        <time>2000-1-1T4:09:47.000Z</time>
      </trkpt>
      <trkpt lat="44.1963" lon="5.05672">
        <ele>505</ele>
        <time>2000-1-1T4:09:57.000Z</time>
      </trkpt>
      <trkpt lat="44.1964" lon="5.0571">
        <ele>505</ele>
        <time>2000-1-1T4:10:07.000Z</time>
      </trkpt>
      <trkpt lat="44.19643" lon="5.05722">
        <ele>500.8</ele>
        <time>2000-1-1T4:10:17.000Z</time>
      </trkpt>
      <trkpt lat="44.19647" lon="5.05733">
        <ele>500.6</ele>
        <time>2000-1-1T4:10:27.000Z</time>
      </trkpt>
      <trkpt lat="44.19655" lon="5.05749">
        <ele>507</ele>
        <time>2000-1-1T4:10:37.000Z</time>
      </trkpt>
      <trkpt lat="44.19662" lon="5.05767">
        <ele>501.6</ele>
        <time>2000-1-1T4:10:47.000Z</time>
      </trkpt>
      <trkpt lat="44.19681" lon="5.058">
        <ele>505</ele>
        <time>2000-1-1T4:10:57.000Z</time>
      </trkpt>
      <trkpt lat="44.19685" lon="5.05828">
        <ele>503</ele>
        <time>2000-1-1T4:11:07.000Z</time>
      </trkpt>
      <trkpt lat="44.19685" lon="5.05837">
        <ele>501.8</ele>
        <time>2000-1-1T4:11:17.000Z</time>
      </trkpt>
      <trkpt lat="44.19683" lon="5.05843">
        <ele>501.7</ele>
        <time>2000-1-1T4:11:27.000Z</time>
      </trkpt>
      <trkpt lat="44.19674" lon="5.05862">
        <ele>502</ele>
        <time>2000-1-1T4:11:37.000Z</time>
      </trkpt>
      <trkpt lat="44.19663" lon="5.0588">
        <ele>501.3</ele>
        <time>2000-1-1T4:11:47.000Z</time>
      </trkpt>
      <trkpt lat="44.19651" lon="5.05902">
        <ele>495</ele>
        <time>2000-1-1T4:11:57.000Z</time>
      </trkpt>
      <trkpt lat="44.19641" lon="5.05942">
        <ele>495</ele>
        <time>2000-1-1T4:12:07.000Z</time>
      </trkpt>
      <trkpt lat="44.19636" lon="5.05979">
        <ele>497</ele>
        <time>2000-1-1T4:12:17.000Z</time>
      </trkpt>
      <trkpt lat="44.19632" lon="5.06041">
        <ele>499</ele>
        <time>2000-1-1T4:12:27.000Z</time>
      </trkpt>
      <trkpt lat="44.19629" lon="5.06046">
        <ele>494.6</ele>
        <time>2000-1-1T4:12:37.000Z</time>
      </trkpt>
      <trkpt lat="44.19632" lon="5.06084">
        <ele>499</ele>
        <time>2000-1-1T4:12:47.000Z</time>
      </trkpt>
      <trkpt lat="44.19631" lon="5.06096">
        <ele>495.1</ele>
        <time>2000-1-1T4:12:57.000Z</time>
      </trkpt>
      <trkpt lat="44.19636" lon="5.06144">
        <ele>497</ele>
        <time>2000-1-1T4:13:07.000Z</time>
      </trkpt>
      <trkpt lat="44.19644" lon="5.06182">
        <ele>497</ele>
        <time>2000-1-1T4:13:17.000Z</time>
      </trkpt>
      <trkpt lat="44.19654" lon="5.06234">
        <ele>495</ele>
        <time>2000-1-1T4:13:27.000Z</time>
      </trkpt>
      <trkpt lat="44.19661" lon="5.06268">
        <ele>494</ele>
        <time>2000-1-1T4:13:37.000Z</time>
      </trkpt>
      <trkpt lat="44.19669" lon="5.06307">
        <ele>493</ele>
        <time>2000-1-1T4:13:47.000Z</time>
      </trkpt>
      <trkpt lat="44.19672" lon="5.0632">
        <ele>495.6</ele>
        <time>2000-1-1T4:13:57.000Z</time>
      </trkpt>
      <trkpt lat="44.19673" lon="5.06352">
        <ele>490</ele>
        <time>2000-1-1T4:14:07.000Z</time>
      </trkpt>
      <trkpt lat="44.1967" lon="5.06394">
        <ele>489</ele>
        <time>2000-1-1T4:14:17.000Z</time>
      </trkpt>
      <trkpt lat="44.19661" lon="5.06427">
        <ele>492</ele>
        <time>2000-1-1T4:14:27.000Z</time>
      </trkpt>
      <trkpt lat="44.19652" lon="5.06457">
        <ele>493</ele>
        <time>2000-1-1T4:14:37.000Z</time>
      </trkpt>
      <trkpt lat="44.19637" lon="5.06483">
        <ele>495</ele>
        <time>2000-1-1T4:14:47.000Z</time>
      </trkpt>
      <trkpt lat="44.1961" lon="5.06512">
        <ele>497</ele>
        <time>2000-1-1T4:14:57.000Z</time>
      </trkpt>
      <trkpt lat="44.19586" lon="5.06534">
        <ele>498</ele>
        <time>2000-1-1T4:15:07.000Z</time>
      </trkpt>
      <trkpt lat="44.19572" lon="5.06552">
        <ele>496.9</ele>
        <time>2000-1-1T4:15:17.000Z</time>
      </trkpt>
      <trkpt lat="44.19552" lon="5.0657">
        <ele>498</ele>
        <time>2000-1-1T4:15:27.000Z</time>
      </trkpt>
      <trkpt lat="44.19536" lon="5.06593">
        <ele>495</ele>
        <time>2000-1-1T4:15:37.000Z</time>
      </trkpt>
      <trkpt lat="44.19529" lon="5.06597">
        <ele>500.3</ele>
        <time>2000-1-1T4:15:47.000Z</time>
      </trkpt>
      <trkpt lat="44.19524" lon="5.06595">
        <ele>499.3</ele>
        <time>2000-1-1T4:15:57.000Z</time>
      </trkpt>
      <trkpt lat="44.19519" lon="5.06598">
        <ele>497.2</ele>
        <time>2000-1-1T4:16:07.000Z</time>
      </trkpt>
      <trkpt lat="44.19511" lon="5.06607">
        <ele>494</ele>
        <time>2000-1-1T4:16:17.000Z</time>
      </trkpt>
      <trkpt lat="44.19499" lon="5.06624">
        <ele>491.5</ele>
        <time>2000-1-1T4:16:27.000Z</time>
      </trkpt>
      <trkpt lat="44.19494" lon="5.0664">
        <ele>494</ele>
        <time>2000-1-1T4:16:37.000Z</time>
      </trkpt>
      <trkpt lat="44.19487" lon="5.06667">
        <ele>488</ele>
        <time>2000-1-1T4:16:47.000Z</time>
      </trkpt>
      <trkpt lat="44.19476" lon="5.06699">
        <ele>488</ele>
        <time>2000-1-1T4:16:57.000Z</time>
      </trkpt>
      <trkpt lat="44.19466" lon="5.06727">
        <ele>485</ele>
        <time>2000-1-1T4:17:07.000Z</time>
      </trkpt>
      <trkpt lat="44.19454" lon="5.06759">
        <ele>485</ele>
        <time>2000-1-1T4:17:17.000Z</time>
      </trkpt>
      <trkpt lat="44.19451" lon="5.06767">
        <ele>487.2</ele>
        <time>2000-1-1T4:17:27.000Z</time>
      </trkpt>
      <trkpt lat="44.19451" lon="5.0677">
        <ele>487.4</ele>
        <time>2000-1-1T4:17:37.000Z</time>
      </trkpt>
      <trkpt lat="44.1945" lon="5.06773">
        <ele>487.3</ele>
        <time>2000-1-1T4:17:47.000Z</time>
      </trkpt>
      <trkpt lat="44.19447" lon="5.06778">
        <ele>486.9</ele>
        <time>2000-1-1T4:17:57.000Z</time>
      </trkpt>
      <trkpt lat="44.19442" lon="5.06785">
        <ele>483</ele>
        <time>2000-1-1T4:18:07.000Z</time>
      </trkpt>
      <trkpt lat="44.19434" lon="5.06813">
        <ele>483</ele>
        <time>2000-1-1T4:18:17.000Z</time>
      </trkpt>
      <trkpt lat="44.19428" lon="5.06838">
        <ele>489</ele>
        <time>2000-1-1T4:18:27.000Z</time>
      </trkpt>
      <trkpt lat="44.19424" lon="5.06851">
        <ele>483</ele>
        <time>2000-1-1T4:18:37.000Z</time>
      </trkpt>
      <trkpt lat="44.19421" lon="5.06856">
        <ele>489.3</ele>
        <time>2000-1-1T4:18:47.000Z</time>
      </trkpt>
      <trkpt lat="44.19398" lon="5.06882">
        <ele>483</ele>
        <time>2000-1-1T4:18:57.000Z</time>
      </trkpt>
      <trkpt lat="44.19395" lon="5.06883">
        <ele>490.1</ele>
        <time>2000-1-1T4:19:07.000Z</time>
      </trkpt>
      <trkpt lat="44.19384" lon="5.06895">
        <ele>490.1</ele>
        <time>2000-1-1T4:19:17.000Z</time>
      </trkpt>
      <trkpt lat="44.19379" lon="5.06906">
        <ele>483</ele>
        <time>2000-1-1T4:19:27.000Z</time>
      </trkpt>
      <trkpt lat="44.19368" lon="5.06931">
        <ele>487</ele>
        <time>2000-1-1T4:19:37.000Z</time>
      </trkpt>
      <trkpt lat="44.19363" lon="5.06932">
        <ele>492.6</ele>
        <time>2000-1-1T4:19:47.000Z</time>
      </trkpt>
      <trkpt lat="44.19358" lon="5.06931">
        <ele>491.9</ele>
        <time>2000-1-1T4:19:57.000Z</time>
      </trkpt>
      <trkpt lat="44.19347" lon="5.06933">
        <ele>487</ele>
        <time>2000-1-1T4:20:07.000Z</time>
      </trkpt>
      <trkpt lat="44.19335" lon="5.0694">
        <ele>491.7</ele>
        <time>2000-1-1T4:20:17.000Z</time>
      </trkpt>
      <trkpt lat="44.19327" lon="5.06952">
        <ele>495</ele>
        <time>2000-1-1T4:20:27.000Z</time>
      </trkpt>
      <trkpt lat="44.19322" lon="5.06972">
        <ele>495.2</ele>
        <time>2000-1-1T4:20:37.000Z</time>
      </trkpt>
      <trkpt lat="44.19313" lon="5.07018">
        <ele>498</ele>
        <time>2000-1-1T4:20:47.000Z</time>
      </trkpt>
      <trkpt lat="44.19308" lon="5.07033">
        <ele>504.2</ele>
        <time>2000-1-1T4:20:57.000Z</time>
      </trkpt>
      <trkpt lat="44.19304" lon="5.07041">
        <ele>499</ele>
        <time>2000-1-1T4:21:07.000Z</time>
      </trkpt>
      <trkpt lat="44.193" lon="5.07061">
        <ele>507.6</ele>
        <time>2000-1-1T4:21:17.000Z</time>
      </trkpt>
      <trkpt lat="44.19293" lon="5.07071">
        <ele>500</ele>
        <time>2000-1-1T4:21:27.000Z</time>
      </trkpt>
      <trkpt lat="44.19285" lon="5.07087">
        <ele>510.5</ele>
        <time>2000-1-1T4:21:37.000Z</time>
      </trkpt>
      <trkpt lat="44.19271" lon="5.07107">
        <ele>505</ele>
        <time>2000-1-1T4:21:47.000Z</time>
      </trkpt>
      <trkpt lat="44.19268" lon="5.07115">
        <ele>512.9</ele>
        <time>2000-1-1T4:21:57.000Z</time>
      </trkpt>
      <trkpt lat="44.19258" lon="5.07132">
        <ele>508</ele>
        <time>2000-1-1T4:22:07.000Z</time>
      </trkpt>
      <trkpt lat="44.19259" lon="5.07152">
        <ele>516.7</ele>
        <time>2000-1-1T4:22:17.000Z</time>
      </trkpt>
      <trkpt lat="44.19259" lon="5.07154">
        <ele>516.9</ele>
        <time>2000-1-1T4:22:27.000Z</time>
      </trkpt>
      <trkpt lat="44.19246" lon="5.07169">
        <ele>509</ele>
        <time>2000-1-1T4:22:37.000Z</time>
      </trkpt>
      <trkpt lat="44.19227" lon="5.07181">
        <ele>511</ele>
        <time>2000-1-1T4:22:47.000Z</time>
      </trkpt>
      <trkpt lat="44.19213" lon="5.07184">
        <ele>513.8</ele>
        <time>2000-1-1T4:22:57.000Z</time>
      </trkpt>
      <trkpt lat="44.19212" lon="5.07185">
        <ele>513.8</ele>
        <time>2000-1-1T4:23:07.000Z</time>
      </trkpt>
      <trkpt lat="44.19209" lon="5.07189">
        <ele>512</ele>
        <time>2000-1-1T4:23:17.000Z</time>
      </trkpt>
      <trkpt lat="44.19207" lon="5.0719">
        <ele>513.7</ele>
        <time>2000-1-1T4:23:27.000Z</time>
      </trkpt>
      <trkpt lat="44.19204" lon="5.07202">
        <ele>513</ele>
        <time>2000-1-1T4:23:37.000Z</time>
      </trkpt>
      <trkpt lat="44.19202" lon="5.0722">
        <ele>516</ele>
        <time>2000-1-1T4:23:47.000Z</time>
      </trkpt>
      <trkpt lat="44.19204" lon="5.07225">
        <ele>511.1</ele>
        <time>2000-1-1T4:23:57.000Z</time>
      </trkpt>
      <trkpt lat="44.19204" lon="5.07232">
        <ele>510.3</ele>
        <time>2000-1-1T4:24:07.000Z</time>
      </trkpt>
      <trkpt lat="44.19203" lon="5.07236">
        <ele>510</ele>
        <time>2000-1-1T4:24:17.000Z</time>
      </trkpt>
      <trkpt lat="44.19204" lon="5.0726">
        <ele>518</ele>
        <time>2000-1-1T4:24:27.000Z</time>
      </trkpt>
      <trkpt lat="44.19202" lon="5.07286">
        <ele>507</ele>
        <time>2000-1-1T4:24:37.000Z</time>
      </trkpt>
      <trkpt lat="44.19204" lon="5.07303">
        <ele>516</ele>
        <time>2000-1-1T4:24:47.000Z</time>
      </trkpt>
      <trkpt lat="44.19212" lon="5.07334">
        <ele>515</ele>
        <time>2000-1-1T4:24:57.000Z</time>
      </trkpt>
      <trkpt lat="44.19214" lon="5.07349">
        <ele>504</ele>
        <time>2000-1-1T4:25:07.000Z</time>
      </trkpt>
      <trkpt lat="44.19222" lon="5.07377">
        <ele>518</ele>
        <time>2000-1-1T4:25:17.000Z</time>
      </trkpt>
      <trkpt lat="44.19225" lon="5.07382">
        <ele>501.7</ele>
        <time>2000-1-1T4:25:27.000Z</time>
      </trkpt>
      <trkpt lat="44.19235" lon="5.07417">
        <ele>516</ele>
        <time>2000-1-1T4:25:37.000Z</time>
      </trkpt>
      <trkpt lat="44.1925" lon="5.07444">
        <ele>514</ele>
        <time>2000-1-1T4:25:47.000Z</time>
      </trkpt>
      <trkpt lat="44.1926" lon="5.07457">
        <ele>499.8</ele>
        <time>2000-1-1T4:25:57.000Z</time>
      </trkpt>
      <trkpt lat="44.19305" lon="5.07469">
        <ele>505</ele>
        <time>2000-1-1T4:26:07.000Z</time>
      </trkpt>
      <trkpt lat="44.19306" lon="5.0747">
        <ele>493.3</ele>
        <time>2000-1-1T4:26:17.000Z</time>
      </trkpt>
      <trkpt lat="44.19313" lon="5.07472">
        <ele>492.2</ele>
        <time>2000-1-1T4:26:27.000Z</time>
      </trkpt>
      <trkpt lat="44.19327" lon="5.07475">
        <ele>496</ele>
        <time>2000-1-1T4:26:37.000Z</time>
      </trkpt>
      <trkpt lat="44.19334" lon="5.07481">
        <ele>487.6</ele>
        <time>2000-1-1T4:26:47.000Z</time>
      </trkpt>
      <trkpt lat="44.19342" lon="5.07483">
        <ele>485.7</ele>
        <time>2000-1-1T4:26:57.000Z</time>
      </trkpt>
      <trkpt lat="44.19349" lon="5.07488">
        <ele>496</ele>
        <time>2000-1-1T4:27:07.000Z</time>
      </trkpt>
      <trkpt lat="44.19352" lon="5.07488">
        <ele>483.7</ele>
        <time>2000-1-1T4:27:17.000Z</time>
      </trkpt>
      <trkpt lat="44.19365" lon="5.07493">
        <ele>481.1</ele>
        <time>2000-1-1T4:27:27.000Z</time>
      </trkpt>
      <trkpt lat="44.19369" lon="5.07494">
        <ele>491</ele>
        <time>2000-1-1T4:27:37.000Z</time>
      </trkpt>
      <trkpt lat="44.19375" lon="5.07497">
        <ele>479.5</ele>
        <time>2000-1-1T4:27:47.000Z</time>
      </trkpt>
      <trkpt lat="44.19379" lon="5.07498">
        <ele>478.8</ele>
        <time>2000-1-1T4:27:57.000Z</time>
      </trkpt>
      <trkpt lat="44.19402" lon="5.07508">
        <ele>481</ele>
        <time>2000-1-1T4:28:07.000Z</time>
      </trkpt>
      <trkpt lat="44.19421" lon="5.07519">
        <ele>477</ele>
        <time>2000-1-1T4:28:17.000Z</time>
      </trkpt>
      <trkpt lat="44.19427" lon="5.07521">
        <ele>469.4</ele>
        <time>2000-1-1T4:28:27.000Z</time>
      </trkpt>
      <trkpt lat="44.19431" lon="5.0752">
        <ele>468.7</ele>
        <time>2000-1-1T4:28:37.000Z</time>
      </trkpt>
      <trkpt lat="44.19459" lon="5.07531">
        <ele>475</ele>
        <time>2000-1-1T4:28:47.000Z</time>
      </trkpt>
      <trkpt lat="44.19476" lon="5.07541">
        <ele>463.1</ele>
        <time>2000-1-1T4:28:57.000Z</time>
      </trkpt>
      <trkpt lat="44.19482" lon="5.07547">
        <ele>473</ele>
        <time>2000-1-1T4:29:07.000Z</time>
      </trkpt>
      <trkpt lat="44.19491" lon="5.07554">
        <ele>461</ele>
        <time>2000-1-1T4:29:17.000Z</time>
      </trkpt>
      <trkpt lat="44.19492" lon="5.07559">
        <ele>460.7</ele>
        <time>2000-1-1T4:29:27.000Z</time>
      </trkpt>
      <trkpt lat="44.19496" lon="5.07568">
        <ele>469</ele>
        <time>2000-1-1T4:29:37.000Z</time>
      </trkpt>
      <trkpt lat="44.195" lon="5.07574">
        <ele>459.3</ele>
        <time>2000-1-1T4:29:47.000Z</time>
      </trkpt>
      <trkpt lat="44.19505" lon="5.07582">
        <ele>458.5</ele>
        <time>2000-1-1T4:29:57.000Z</time>
      </trkpt>
      <trkpt lat="44.19509" lon="5.07604">
        <ele>467</ele>
        <time>2000-1-1T4:30:07.000Z</time>
      </trkpt>
      <trkpt lat="44.1951" lon="5.07607">
        <ele>457.1</ele>
        <time>2000-1-1T4:30:17.000Z</time>
      </trkpt>
      <trkpt lat="44.19511" lon="5.07613">
        <ele>456.8</ele>
        <time>2000-1-1T4:30:27.000Z</time>
      </trkpt>
      <trkpt lat="44.19511" lon="5.07618">
        <ele>456.7</ele>
        <time>2000-1-1T4:30:37.000Z</time>
      </trkpt>
      <trkpt lat="44.19517" lon="5.07639">
        <ele>465</ele>
        <time>2000-1-1T4:30:47.000Z</time>
      </trkpt>
      <trkpt lat="44.19524" lon="5.07648">
        <ele>454.8</ele>
        <time>2000-1-1T4:30:57.000Z</time>
      </trkpt>
      <trkpt lat="44.19537" lon="5.07674">
        <ele>462</ele>
        <time>2000-1-1T4:31:07.000Z</time>
      </trkpt>
      <trkpt lat="44.19538" lon="5.07677">
        <ele>453.2</ele>
        <time>2000-1-1T4:31:17.000Z</time>
      </trkpt>
      <trkpt lat="44.19549" lon="5.07701">
        <ele>459</ele>
        <time>2000-1-1T4:31:27.000Z</time>
      </trkpt>
      <trkpt lat="44.19564" lon="5.07724">
        <ele>457</ele>
        <time>2000-1-1T4:31:37.000Z</time>
      </trkpt>
      <trkpt lat="44.19567" lon="5.07729">
        <ele>449.6</ele>
        <time>2000-1-1T4:31:47.000Z</time>
      </trkpt>
      <trkpt lat="44.19572" lon="5.07736">
        <ele>449.3</ele>
        <time>2000-1-1T4:31:57.000Z</time>
      </trkpt>
      <trkpt lat="44.1958" lon="5.07749">
        <ele>455</ele>
        <time>2000-1-1T4:32:07.000Z</time>
      </trkpt>
      <trkpt lat="44.19582" lon="5.07754">
        <ele>448.6</ele>
        <time>2000-1-1T4:32:17.000Z</time>
      </trkpt>
      <trkpt lat="44.19594" lon="5.07775">
        <ele>455</ele>
        <time>2000-1-1T4:32:27.000Z</time>
      </trkpt>
      <trkpt lat="44.19602" lon="5.07792">
        <ele>445.8</ele>
        <time>2000-1-1T4:32:37.000Z</time>
      </trkpt>
      <trkpt lat="44.1962" lon="5.07807">
        <ele>450</ele>
        <time>2000-1-1T4:32:47.000Z</time>
      </trkpt>
      <trkpt lat="44.19626" lon="5.07816">
        <ele>442.8</ele>
        <time>2000-1-1T4:32:57.000Z</time>
      </trkpt>
      <trkpt lat="44.19632" lon="5.07828">
        <ele>441.4</ele>
        <time>2000-1-1T4:33:07.000Z</time>
      </trkpt>
      <trkpt lat="44.19639" lon="5.07837">
        <ele>443</ele>
        <time>2000-1-1T4:33:17.000Z</time>
      </trkpt>
      <trkpt lat="44.19645" lon="5.07852">
        <ele>437.7</ele>
        <time>2000-1-1T4:33:27.000Z</time>
      </trkpt>
      <trkpt lat="44.19655" lon="5.0787">
        <ele>440</ele>
        <time>2000-1-1T4:33:37.000Z</time>
      </trkpt>
      <trkpt lat="44.19661" lon="5.07876">
        <ele>433.6</ele>
        <time>2000-1-1T4:33:47.000Z</time>
      </trkpt>
      <trkpt lat="44.19672" lon="5.07865">
        <ele>438</ele>
        <time>2000-1-1T4:33:57.000Z</time>
      </trkpt>
      <trkpt lat="44.19688" lon="5.07858">
        <ele>431.3</ele>
        <time>2000-1-1T4:34:07.000Z</time>
      </trkpt>
      <trkpt lat="44.19692" lon="5.07855">
        <ele>438</ele>
        <time>2000-1-1T4:34:17.000Z</time>
      </trkpt>
      <trkpt lat="44.19708" lon="5.07831">
        <ele>437</ele>
        <time>2000-1-1T4:34:27.000Z</time>
      </trkpt>
      <trkpt lat="44.19718" lon="5.07841">
        <ele>427.9</ele>
        <time>2000-1-1T4:34:37.000Z</time>
      </trkpt>
      <trkpt lat="44.19721" lon="5.0785">
        <ele>427.7</ele>
        <time>2000-1-1T4:34:47.000Z</time>
      </trkpt>
      <trkpt lat="44.19724" lon="5.07852">
        <ele>436</ele>
        <time>2000-1-1T4:34:57.000Z</time>
      </trkpt>
      <trkpt lat="44.1973" lon="5.07861">
        <ele>429.9</ele>
        <time>2000-1-1T4:35:07.000Z</time>
      </trkpt>
      <trkpt lat="44.19733" lon="5.07876">
        <ele>436</ele>
        <time>2000-1-1T4:35:17.000Z</time>
      </trkpt>
      <trkpt lat="44.19734" lon="5.07884">
        <ele>429.6</ele>
        <time>2000-1-1T4:35:27.000Z</time>
      </trkpt>
      <trkpt lat="44.19735" lon="5.07887">
        <ele>429.8</ele>
        <time>2000-1-1T4:35:37.000Z</time>
      </trkpt>
      <trkpt lat="44.19741" lon="5.07894">
        <ele>431.1</ele>
        <time>2000-1-1T4:35:47.000Z</time>
      </trkpt>
      <trkpt lat="44.19745" lon="5.079">
        <ele>434</ele>
        <time>2000-1-1T4:35:57.000Z</time>
      </trkpt>
      <trkpt lat="44.19747" lon="5.0791">
        <ele>430.6</ele>
        <time>2000-1-1T4:36:07.000Z</time>
      </trkpt>
      <trkpt lat="44.19754" lon="5.07924">
        <ele>434</ele>
        <time>2000-1-1T4:36:17.000Z</time>
      </trkpt>
      <trkpt lat="44.19761" lon="5.07926">
        <ele>427.1</ele>
        <time>2000-1-1T4:36:27.000Z</time>
      </trkpt>
      <trkpt lat="44.19768" lon="5.07932">
        <ele>424.9</ele>
        <time>2000-1-1T4:36:37.000Z</time>
      </trkpt>
      <trkpt lat="44.19773" lon="5.07943">
        <ele>434</ele>
        <time>2000-1-1T4:36:47.000Z</time>
      </trkpt>
      <trkpt lat="44.19773" lon="5.07956">
        <ele>423.5</ele>
        <time>2000-1-1T4:36:57.000Z</time>
      </trkpt>
      <trkpt lat="44.19772" lon="5.07969">
        <ele>425.3</ele>
        <time>2000-1-1T4:37:07.000Z</time>
      </trkpt>
      <trkpt lat="44.1977" lon="5.07977">
        <ele>432</ele>
        <time>2000-1-1T4:37:17.000Z</time>
      </trkpt>
      <trkpt lat="44.19761" lon="5.07998">
        <ele>428.6</ele>
        <time>2000-1-1T4:37:27.000Z</time>
      </trkpt>
      <trkpt lat="44.19758" lon="5.08003">
        <ele>432</ele>
        <time>2000-1-1T4:37:37.000Z</time>
      </trkpt>
      <trkpt lat="44.19753" lon="5.08015">
        <ele>428.2</ele>
        <time>2000-1-1T4:37:47.000Z</time>
      </trkpt>
      <trkpt lat="44.19755" lon="5.08018">
        <ele>428.7</ele>
        <time>2000-1-1T4:37:57.000Z</time>
      </trkpt>
      <trkpt lat="44.19757" lon="5.08019">
        <ele>429.1</ele>
        <time>2000-1-1T4:38:07.000Z</time>
      </trkpt>
      <trkpt lat="44.19762" lon="5.08037">
        <ele>431</ele>
        <time>2000-1-1T4:38:17.000Z</time>
      </trkpt>
      <trkpt lat="44.19771" lon="5.08053">
        <ele>431.7</ele>
        <time>2000-1-1T4:38:27.000Z</time>
      </trkpt>
      <trkpt lat="44.1978" lon="5.08078">
        <ele>431</ele>
        <time>2000-1-1T4:38:37.000Z</time>
      </trkpt>
      <trkpt lat="44.19782" lon="5.08086">
        <ele>429.2</ele>
        <time>2000-1-1T4:38:47.000Z</time>
      </trkpt>
      <trkpt lat="44.19782" lon="5.08089">
        <ele>429</ele>
        <time>2000-1-1T4:38:57.000Z</time>
      </trkpt>
      <trkpt lat="44.19785" lon="5.08097">
        <ele>428.7</ele>
        <time>2000-1-1T4:39:07.000Z</time>
      </trkpt>
      <trkpt lat="44.19789" lon="5.08103">
        <ele>430</ele>
        <time>2000-1-1T4:39:17.000Z</time>
      </trkpt>
      <trkpt lat="44.1979" lon="5.08109">
        <ele>428</ele>
        <time>2000-1-1T4:39:27.000Z</time>
      </trkpt>
      <trkpt lat="44.19791" lon="5.08112">
        <ele>427.9</ele>
        <time>2000-1-1T4:39:37.000Z</time>
      </trkpt>
      <trkpt lat="44.19799" lon="5.08123">
        <ele>427</ele>
        <time>2000-1-1T4:39:47.000Z</time>
      </trkpt>
      <trkpt lat="44.19811" lon="5.08131">
        <ele>430</ele>
        <time>2000-1-1T4:39:57.000Z</time>
      </trkpt>
      <trkpt lat="44.19814" lon="5.08139">
        <ele>426.5</ele>
        <time>2000-1-1T4:40:07.000Z</time>
      </trkpt>
      <trkpt lat="44.19812" lon="5.08154">
        <ele>426.6</ele>
        <time>2000-1-1T4:40:17.000Z</time>
      </trkpt>
      <trkpt lat="44.19816" lon="5.08172">
        <ele>429</ele>
        <time>2000-1-1T4:40:27.000Z</time>
      </trkpt>
      <trkpt lat="44.19843" lon="5.08211">
        <ele>430</ele>
        <time>2000-1-1T4:40:37.000Z</time>
      </trkpt>
      <trkpt lat="44.19844" lon="5.08217">
        <ele>427.3</ele>
        <time>2000-1-1T4:40:47.000Z</time>
      </trkpt>
      <trkpt lat="44.19844" lon="5.08225">
        <ele>426.9</ele>
        <time>2000-1-1T4:40:57.000Z</time>
      </trkpt>
      <trkpt lat="44.19845" lon="5.08229">
        <ele>427.2</ele>
        <time>2000-1-1T4:41:07.000Z</time>
      </trkpt>
      <trkpt lat="44.19857" lon="5.08251">
        <ele>430</ele>
        <time>2000-1-1T4:41:17.000Z</time>
      </trkpt>
      <trkpt lat="44.19869" lon="5.08276">
        <ele>429</ele>
        <time>2000-1-1T4:41:27.000Z</time>
      </trkpt>
      <trkpt lat="44.19878" lon="5.08303">
        <ele>435</ele>
        <time>2000-1-1T4:41:37.000Z</time>
      </trkpt>
      <trkpt lat="44.19888" lon="5.08327">
        <ele>441</ele>
        <time>2000-1-1T4:41:47.000Z</time>
      </trkpt>
      <trkpt lat="44.19898" lon="5.08345">
        <ele>432.1</ele>
        <time>2000-1-1T4:41:57.000Z</time>
      </trkpt>
      <trkpt lat="44.19899" lon="5.08349">
        <ele>441</ele>
        <time>2000-1-1T4:42:07.000Z</time>
      </trkpt>
      <trkpt lat="44.19883" lon="5.08407">
        <ele>440</ele>
        <time>2000-1-1T4:42:17.000Z</time>
      </trkpt>
      <trkpt lat="44.19877" lon="5.08443">
        <ele>441</ele>
        <time>2000-1-1T4:42:27.000Z</time>
      </trkpt>
      <trkpt lat="44.19876" lon="5.08464">
        <ele>441</ele>
        <time>2000-1-1T4:42:37.000Z</time>
      </trkpt>
      <trkpt lat="44.1988" lon="5.08476">
        <ele>442</ele>
        <time>2000-1-1T4:42:47.000Z</time>
      </trkpt>
      <trkpt lat="44.19882" lon="5.08497">
        <ele>450.6</ele>
        <time>2000-1-1T4:42:57.000Z</time>
      </trkpt>
      <trkpt lat="44.19881" lon="5.08528">
        <ele>457</ele>
        <time>2000-1-1T4:43:07.000Z</time>
      </trkpt>
      <trkpt lat="44.19887" lon="5.08563">
        <ele>456</ele>
        <time>2000-1-1T4:43:17.000Z</time>
      </trkpt>
      <trkpt lat="44.19892" lon="5.08579">
        <ele>460.9</ele>
        <time>2000-1-1T4:43:27.000Z</time>
      </trkpt>
      <trkpt lat="44.1989" lon="5.08597">
        <ele>456</ele>
        <time>2000-1-1T4:43:37.000Z</time>
      </trkpt>
      <trkpt lat="44.19889" lon="5.08601">
        <ele>459.1</ele>
        <time>2000-1-1T4:43:47.000Z</time>
      </trkpt>
      <trkpt lat="44.19891" lon="5.08605">
        <ele>459.6</ele>
        <time>2000-1-1T4:43:57.000Z</time>
      </trkpt>
      <trkpt lat="44.19897" lon="5.08613">
        <ele>460.9</ele>
        <time>2000-1-1T4:44:07.000Z</time>
      </trkpt>
      <trkpt lat="44.19911" lon="5.08624">
        <ele>465</ele>
        <time>2000-1-1T4:44:17.000Z</time>
      </trkpt>
      <trkpt lat="44.19928" lon="5.0863">
        <ele>462</ele>
        <time>2000-1-1T4:44:27.000Z</time>
      </trkpt>
      <trkpt lat="44.19946" lon="5.08632">
        <ele>473</ele>
        <time>2000-1-1T4:44:37.000Z</time>
      </trkpt>
      <trkpt lat="44.19963" lon="5.08639">
        <ele>462.3</ele>
        <time>2000-1-1T4:44:47.000Z</time>
      </trkpt>
      <trkpt lat="44.19998" lon="5.08649">
        <ele>476</ele>
        <time>2000-1-1T4:44:57.000Z</time>
      </trkpt>
      <trkpt lat="44.20012" lon="5.08649">
        <ele>461.7</ele>
        <time>2000-1-1T4:45:07.000Z</time>
      </trkpt>
      <trkpt lat="44.20017" lon="5.0865">
        <ele>476</ele>
        <time>2000-1-1T4:45:17.000Z</time>
      </trkpt>
      <trkpt lat="44.20021" lon="5.08652">
        <ele>460.1</ele>
        <time>2000-1-1T4:45:27.000Z</time>
      </trkpt>
      <trkpt lat="44.20028" lon="5.08656">
        <ele>458.1</ele>
        <time>2000-1-1T4:45:37.000Z</time>
      </trkpt>
      <trkpt lat="44.20045" lon="5.08662">
        <ele>472</ele>
        <time>2000-1-1T4:45:47.000Z</time>
      </trkpt>
      <trkpt lat="44.20059" lon="5.08671">
        <ele>450.5</ele>
        <time>2000-1-1T4:45:57.000Z</time>
      </trkpt>
      <trkpt lat="44.20071" lon="5.08677">
        <ele>468</ele>
        <time>2000-1-1T4:46:07.000Z</time>
      </trkpt>
      <trkpt lat="44.2008" lon="5.08683">
        <ele>444.9</ele>
        <time>2000-1-1T4:46:17.000Z</time>
      </trkpt>
      <trkpt lat="44.2009" lon="5.08689">
        <ele>468</ele>
        <time>2000-1-1T4:46:27.000Z</time>
      </trkpt>
      <trkpt lat="44.20098" lon="5.08692">
        <ele>439.9</ele>
        <time>2000-1-1T4:46:37.000Z</time>
      </trkpt>
      <trkpt lat="44.20112" lon="5.08702">
        <ele>457</ele>
        <time>2000-1-1T4:46:47.000Z</time>
      </trkpt>
      <trkpt lat="44.20127" lon="5.08716">
        <ele>430.1</ele>
        <time>2000-1-1T4:46:57.000Z</time>
      </trkpt>
      <trkpt lat="44.20132" lon="5.08721">
        <ele>444</ele>
        <time>2000-1-1T4:47:07.000Z</time>
      </trkpt>
      <trkpt lat="44.2014" lon="5.08725">
        <ele>425.6</ele>
        <time>2000-1-1T4:47:17.000Z</time>
      </trkpt>
      <trkpt lat="44.20142" lon="5.08727">
        <ele>425</ele>
        <time>2000-1-1T4:47:27.000Z</time>
      </trkpt>
      <trkpt lat="44.20146" lon="5.08729">
        <ele>424.2</ele>
        <time>2000-1-1T4:47:37.000Z</time>
      </trkpt>
      <trkpt lat="44.20154" lon="5.08736">
        <ele>444</ele>
        <time>2000-1-1T4:47:47.000Z</time>
      </trkpt>
      <trkpt lat="44.2016" lon="5.08738">
        <ele>420.3</ele>
        <time>2000-1-1T4:47:57.000Z</time>
      </trkpt>
      <trkpt lat="44.20171" lon="5.08745">
        <ele>416.5</ele>
        <time>2000-1-1T4:48:07.000Z</time>
      </trkpt>
      <trkpt lat="44.20178" lon="5.08752">
        <ele>432</ele>
        <time>2000-1-1T4:48:17.000Z</time>
      </trkpt>
      <trkpt lat="44.20188" lon="5.08753">
        <ele>411.9</ele>
        <time>2000-1-1T4:48:27.000Z</time>
      </trkpt>
      <trkpt lat="44.20212" lon="5.08736">
        <ele>427</ele>
        <time>2000-1-1T4:48:37.000Z</time>
      </trkpt>
      <trkpt lat="44.20216" lon="5.08735">
        <ele>415.3</ele>
        <time>2000-1-1T4:48:47.000Z</time>
      </trkpt>
      <trkpt lat="44.20219" lon="5.08732">
        <ele>416.3</ele>
        <time>2000-1-1T4:48:57.000Z</time>
      </trkpt>
      <trkpt lat="44.20223" lon="5.0873">
        <ele>416.9</ele>
        <time>2000-1-1T4:49:07.000Z</time>
      </trkpt>
      <trkpt lat="44.20225" lon="5.08729">
        <ele>417</ele>
        <time>2000-1-1T4:49:17.000Z</time>
      </trkpt>
      <trkpt lat="44.20231" lon="5.08729">
        <ele>427</ele>
        <time>2000-1-1T4:49:27.000Z</time>
      </trkpt>
      <trkpt lat="44.20241" lon="5.08724">
        <ele>417.1</ele>
        <time>2000-1-1T4:49:37.000Z</time>
      </trkpt>
      <trkpt lat="44.20255" lon="5.0872">
        <ele>423</ele>
        <time>2000-1-1T4:49:47.000Z</time>
      </trkpt>
      <trkpt lat="44.20278" lon="5.08713">
        <ele>424</ele>
        <time>2000-1-1T4:49:57.000Z</time>
      </trkpt>
      <trkpt lat="44.20294" lon="5.08703">
        <ele>418</ele>
        <time>2000-1-1T4:50:07.000Z</time>
      </trkpt>
      <trkpt lat="44.20308" lon="5.08703">
        <ele>421</ele>
        <time>2000-1-1T4:50:17.000Z</time>
      </trkpt>
      <trkpt lat="44.20316" lon="5.08706">
        <ele>417.6</ele>
        <time>2000-1-1T4:50:27.000Z</time>
      </trkpt>
      <trkpt lat="44.20325" lon="5.08708">
        <ele>418.9</ele>
        <time>2000-1-1T4:50:37.000Z</time>
      </trkpt>
      <trkpt lat="44.20329" lon="5.0871">
        <ele>430</ele>
        <time>2000-1-1T4:50:47.000Z</time>
      </trkpt>
      <trkpt lat="44.20332" lon="5.08706">
        <ele>420.6</ele>
        <time>2000-1-1T4:50:57.000Z</time>
      </trkpt>
      <trkpt lat="44.20335" lon="5.08688">
        <ele>426.2</ele>
        <time>2000-1-1T4:51:07.000Z</time>
      </trkpt>
      <trkpt lat="44.20339" lon="5.08681">
        <ele>440</ele>
        <time>2000-1-1T4:51:17.000Z</time>
      </trkpt>
      <trkpt lat="44.20345" lon="5.08673">
        <ele>433.3</ele>
        <time>2000-1-1T4:51:27.000Z</time>
      </trkpt>
      <trkpt lat="44.20353" lon="5.08667">
        <ele>437.2</ele>
        <time>2000-1-1T4:51:37.000Z</time>
      </trkpt>
      <trkpt lat="44.20357" lon="5.08657">
        <ele>449</ele>
        <time>2000-1-1T4:51:47.000Z</time>
      </trkpt>
      <trkpt lat="44.20363" lon="5.0865">
        <ele>444</ele>
        <time>2000-1-1T4:51:57.000Z</time>
      </trkpt>
      <trkpt lat="44.20371" lon="5.08645">
        <ele>446.1</ele>
        <time>2000-1-1T4:52:07.000Z</time>
      </trkpt>
      <trkpt lat="44.20386" lon="5.08634">
        <ele>451</ele>
        <time>2000-1-1T4:52:17.000Z</time>
      </trkpt>
      <trkpt lat="44.20393" lon="5.08627">
        <ele>454.5</ele>
        <time>2000-1-1T4:52:27.000Z</time>
      </trkpt>
      <trkpt lat="44.20403" lon="5.08621">
        <ele>462</ele>
        <time>2000-1-1T4:52:37.000Z</time>
      </trkpt>
      <trkpt lat="44.20406" lon="5.08618">
        <ele>458.9</ele>
        <time>2000-1-1T4:52:47.000Z</time>
      </trkpt>
      <trkpt lat="44.20415" lon="5.08612">
        <ele>461.5</ele>
        <time>2000-1-1T4:52:57.000Z</time>
      </trkpt>
      <trkpt lat="44.20421" lon="5.0861">
        <ele>465</ele>
        <time>2000-1-1T4:53:07.000Z</time>
      </trkpt>
      <trkpt lat="44.20426" lon="5.08612">
        <ele>461.5</ele>
        <time>2000-1-1T4:53:17.000Z</time>
      </trkpt>
      <trkpt lat="44.20436" lon="5.08609">
        <ele>462.6</ele>
        <time>2000-1-1T4:53:27.000Z</time>
      </trkpt>
      <trkpt lat="44.20442" lon="5.08606">
        <ele>471</ele>
        <time>2000-1-1T4:53:37.000Z</time>
      </trkpt>
      <trkpt lat="44.20454" lon="5.08605">
        <ele>463.2</ele>
        <time>2000-1-1T4:53:47.000Z</time>
      </trkpt>
      <trkpt lat="44.20477" lon="5.086">
        <ele>473</ele>
        <time>2000-1-1T4:53:57.000Z</time>
      </trkpt>
      <trkpt lat="44.2048" lon="5.08598">
        <ele>463.2</ele>
        <time>2000-1-1T4:54:07.000Z</time>
      </trkpt>
      <trkpt lat="44.20492" lon="5.08595">
        <ele>462.8</ele>
        <time>2000-1-1T4:54:17.000Z</time>
      </trkpt>
      <trkpt lat="44.20494" lon="5.08595">
        <ele>462.4</ele>
        <time>2000-1-1T4:54:27.000Z</time>
      </trkpt>
      <trkpt lat="44.20499" lon="5.08594">
        <ele>476</ele>
        <time>2000-1-1T4:54:37.000Z</time>
      </trkpt>
      <trkpt lat="44.20504" lon="5.08594">
        <ele>461.4</ele>
        <time>2000-1-1T4:54:47.000Z</time>
      </trkpt>
      <trkpt lat="44.20519" lon="5.08592">
        <ele>476</ele>
        <time>2000-1-1T4:54:57.000Z</time>
      </trkpt>
      <trkpt lat="44.20538" lon="5.08585">
        <ele>458</ele>
        <time>2000-1-1T4:55:07.000Z</time>
      </trkpt>
      <trkpt lat="44.20543" lon="5.08582">
        <ele>473</ele>
        <time>2000-1-1T4:55:17.000Z</time>
      </trkpt>
      <trkpt lat="44.20547" lon="5.08578">
        <ele>457.7</ele>
        <time>2000-1-1T4:55:27.000Z</time>
      </trkpt>
      <trkpt lat="44.20556" lon="5.08566">
        <ele>458.9</ele>
        <time>2000-1-1T4:55:37.000Z</time>
      </trkpt>
      <trkpt lat="44.20561" lon="5.08561">
        <ele>475</ele>
        <time>2000-1-1T4:55:47.000Z</time>
      </trkpt>
      <trkpt lat="44.2057" lon="5.08551">
        <ele>460.4</ele>
        <time>2000-1-1T4:55:57.000Z</time>
      </trkpt>
      <trkpt lat="44.20581" lon="5.08548">
        <ele>475</ele>
        <time>2000-1-1T4:56:07.000Z</time>
      </trkpt>
      <trkpt lat="44.20595" lon="5.08542">
        <ele>459.1</ele>
        <time>2000-1-1T4:56:17.000Z</time>
      </trkpt>
      <trkpt lat="44.20607" lon="5.08538">
        <ele>473</ele>
        <time>2000-1-1T4:56:27.000Z</time>
      </trkpt>
      <trkpt lat="44.20625" lon="5.08535">
        <ele>458</ele>
        <time>2000-1-1T4:56:37.000Z</time>
      </trkpt>
      <trkpt lat="44.20644" lon="5.08538">
        <ele>472</ele>
        <time>2000-1-1T4:56:47.000Z</time>
      </trkpt>
      <trkpt lat="44.20664" lon="5.08538">
        <ele>472</ele>
        <time>2000-1-1T4:56:57.000Z</time>
      </trkpt>
      <trkpt lat="44.2067" lon="5.08537">
        <ele>456.8</ele>
        <time>2000-1-1T4:57:07.000Z</time>
      </trkpt>
      <trkpt lat="44.20701" lon="5.08539">
        <ele>472</ele>
        <time>2000-1-1T4:57:17.000Z</time>
      </trkpt>
      <trkpt lat="44.20718" lon="5.08535">
        <ele>460.9</ele>
        <time>2000-1-1T4:57:27.000Z</time>
      </trkpt>
      <trkpt lat="44.20722" lon="5.08535">
        <ele>473</ele>
        <time>2000-1-1T4:57:37.000Z</time>
      </trkpt>
      <trkpt lat="44.20747" lon="5.08527">
        <ele>473</ele>
        <time>2000-1-1T4:57:47.000Z</time>
      </trkpt>
      <trkpt lat="44.20773" lon="5.08521">
        <ele>475</ele>
        <time>2000-1-1T4:57:57.000Z</time>
      </trkpt>
      <trkpt lat="44.20796" lon="5.08518">
        <ele>474</ele>
        <time>2000-1-1T4:58:07.000Z</time>
      </trkpt>
      <trkpt lat="44.20822" lon="5.08519">
        <ele>474</ele>
        <time>2000-1-1T4:58:17.000Z</time>
      </trkpt>
      <trkpt lat="44.20837" lon="5.08515">
        <ele>452.2</ele>
        <time>2000-1-1T4:58:27.000Z</time>
      </trkpt>
      <trkpt lat="44.20856" lon="5.08514">
        <ele>465</ele>
        <time>2000-1-1T4:58:37.000Z</time>
      </trkpt>
      <trkpt lat="44.20885" lon="5.08501">
        <ele>456</ele>
        <time>2000-1-1T4:58:47.000Z</time>
      </trkpt>
      <trkpt lat="44.20909" lon="5.08499">
        <ele>456</ele>
        <time>2000-1-1T4:58:57.000Z</time>
      </trkpt>
      <trkpt lat="44.20933" lon="5.08494">
        <ele>445</ele>
        <time>2000-1-1T4:59:07.000Z</time>
      </trkpt>
      <trkpt lat="44.20949" lon="5.08485">
        <ele>441.5</ele>
        <time>2000-1-1T4:59:17.000Z</time>
      </trkpt>
      <trkpt lat="44.20956" lon="5.0848">
        <ele>445</ele>
        <time>2000-1-1T4:59:27.000Z</time>
      </trkpt>
      <trkpt lat="44.20975" lon="5.0848">
        <ele>438.2</ele>
        <time>2000-1-1T4:59:37.000Z</time>
      </trkpt>
      <trkpt lat="44.20988" lon="5.08478">
        <ele>439</ele>
        <time>2000-1-1T4:59:47.000Z</time>
      </trkpt>
      <trkpt lat="44.21017" lon="5.08471">
        <ele>434</ele>
        <time>2000-1-1T4:59:57.000Z</time>
      </trkpt>
      <trkpt lat="44.21051" lon="5.0847">
        <ele>433</ele>
        <time>2000-1-1T5:00:07.000Z</time>
      </trkpt>
      <trkpt lat="44.21069" lon="5.08468">
        <ele>426.9</ele>
        <time>2000-1-1T5:00:17.000Z</time>
      </trkpt>
      <trkpt lat="44.21077" lon="5.08468">
        <ele>433</ele>
        <time>2000-1-1T5:00:27.000Z</time>
      </trkpt>
      <trkpt lat="44.21092" lon="5.08465">
        <ele>424.8</ele>
        <time>2000-1-1T5:00:37.000Z</time>
      </trkpt>
      <trkpt lat="44.21105" lon="5.0846">
        <ele>433</ele>
        <time>2000-1-1T5:00:47.000Z</time>
      </trkpt>
      <trkpt lat="44.21117" lon="5.08452">
        <ele>424.4</ele>
        <time>2000-1-1T5:00:57.000Z</time>
      </trkpt>
      <trkpt lat="44.21131" lon="5.08446">
        <ele>433</ele>
        <time>2000-1-1T5:01:07.000Z</time>
      </trkpt>
      <trkpt lat="44.21173" lon="5.0844">
        <ele>433</ele>
        <time>2000-1-1T5:01:17.000Z</time>
      </trkpt>
      <trkpt lat="44.21191" lon="5.08439">
        <ele>416.7</ele>
        <time>2000-1-1T5:01:27.000Z</time>
      </trkpt>
      <trkpt lat="44.21197" lon="5.08437">
        <ele>425</ele>
        <time>2000-1-1T5:01:37.000Z</time>
      </trkpt>
      <trkpt lat="44.21226" lon="5.08434">
        <ele>419</ele>
        <time>2000-1-1T5:01:47.000Z</time>
      </trkpt>
      <trkpt lat="44.21244" lon="5.0843">
        <ele>412.5</ele>
        <time>2000-1-1T5:01:57.000Z</time>
      </trkpt>
      <trkpt lat="44.21251" lon="5.08426">
        <ele>412</ele>
        <time>2000-1-1T5:02:07.000Z</time>
      </trkpt>
      <trkpt lat="44.21259" lon="5.08425">
        <ele>411.5</ele>
        <time>2000-1-1T5:02:17.000Z</time>
      </trkpt>
      <trkpt lat="44.21265" lon="5.08423">
        <ele>411.5</ele>
        <time>2000-1-1T5:02:27.000Z</time>
      </trkpt>
      <trkpt lat="44.21274" lon="5.08423">
        <ele>410</ele>
        <time>2000-1-1T5:02:37.000Z</time>
      </trkpt>
      <trkpt lat="44.21291" lon="5.08417">
        <ele>409.3</ele>
        <time>2000-1-1T5:02:47.000Z</time>
      </trkpt>
      <trkpt lat="44.21318" lon="5.08406">
        <ele>407</ele>
        <time>2000-1-1T5:02:57.000Z</time>
      </trkpt>
      <trkpt lat="44.21328" lon="5.08403">
        <ele>406.6</ele>
        <time>2000-1-1T5:03:07.000Z</time>
      </trkpt>
      <trkpt lat="44.21336" lon="5.08402">
        <ele>405.2</ele>
        <time>2000-1-1T5:03:17.000Z</time>
      </trkpt>
      <trkpt lat="44.21352" lon="5.08388">
        <ele>398</ele>
        <time>2000-1-1T5:03:27.000Z</time>
      </trkpt>
      <trkpt lat="44.21353" lon="5.08384">
        <ele>404.5</ele>
        <time>2000-1-1T5:03:37.000Z</time>
      </trkpt>
      <trkpt lat="44.21352" lon="5.08381">
        <ele>403.9</ele>
        <time>2000-1-1T5:03:47.000Z</time>
      </trkpt>
      <trkpt lat="44.2135" lon="5.08375">
        <ele>402.7</ele>
        <time>2000-1-1T5:03:57.000Z</time>
      </trkpt>
      <trkpt lat="44.21346" lon="5.08372">
        <ele>402.7</ele>
        <time>2000-1-1T5:04:07.000Z</time>
      </trkpt>
      <trkpt lat="44.21332" lon="5.08359">
        <ele>397</ele>
        <time>2000-1-1T5:04:17.000Z</time>
      </trkpt>
      <trkpt lat="44.21331" lon="5.08358">
        <ele>401.7</ele>
        <time>2000-1-1T5:04:27.000Z</time>
      </trkpt>
      <trkpt lat="44.2133" lon="5.08356">
        <ele>401.2</ele>
        <time>2000-1-1T5:04:37.000Z</time>
      </trkpt>
      <trkpt lat="44.21331" lon="5.08354">
        <ele>400.6</ele>
        <time>2000-1-1T5:04:47.000Z</time>
      </trkpt>
      <trkpt lat="44.21332" lon="5.08353">
        <ele>399.9</ele>
        <time>2000-1-1T5:04:57.000Z</time>
      </trkpt>
      <trkpt lat="44.21345" lon="5.08353">
        <ele>397.2</ele>
        <time>2000-1-1T5:05:07.000Z</time>
      </trkpt>
      <trkpt lat="44.21359" lon="5.08358">
        <ele>393</ele>
        <time>2000-1-1T5:05:17.000Z</time>
      </trkpt>
      <trkpt lat="44.21375" lon="5.0836">
        <ele>394.2</ele>
        <time>2000-1-1T5:05:27.000Z</time>
      </trkpt>
      <trkpt lat="44.21397" lon="5.08361">
        <ele>389</ele>
        <time>2000-1-1T5:05:37.000Z</time>
      </trkpt>
      <trkpt lat="44.21417" lon="5.08364">
        <ele>383</ele>
        <time>2000-1-1T5:05:47.000Z</time>
      </trkpt>
      <trkpt lat="44.21459" lon="5.08356">
        <ele>383</ele>
        <time>2000-1-1T5:05:57.000Z</time>
      </trkpt>
      <trkpt lat="44.2149" lon="5.08348">
        <ele>371</ele>
        <time>2000-1-1T5:06:07.000Z</time>
      </trkpt>
      <trkpt lat="44.21507" lon="5.08344">
        <ele>381.9</ele>
        <time>2000-1-1T5:06:17.000Z</time>
      </trkpt>
      <trkpt lat="44.21518" lon="5.08343">
        <ele>371</ele>
        <time>2000-1-1T5:06:27.000Z</time>
      </trkpt>
      <trkpt lat="44.2153" lon="5.08342">
        <ele>379.1</ele>
        <time>2000-1-1T5:06:37.000Z</time>
      </trkpt>
      <trkpt lat="44.21547" lon="5.08344">
        <ele>371</ele>
        <time>2000-1-1T5:06:47.000Z</time>
      </trkpt>
      <trkpt lat="44.21549" lon="5.08341">
        <ele>377.3</ele>
        <time>2000-1-1T5:06:57.000Z</time>
      </trkpt>
      <trkpt lat="44.21548" lon="5.0834">
        <ele>376.9</ele>
        <time>2000-1-1T5:07:07.000Z</time>
      </trkpt>
      <trkpt lat="44.21546" lon="5.08338">
        <ele>376.3</ele>
        <time>2000-1-1T5:07:17.000Z</time>
      </trkpt>
      <trkpt lat="44.2154" lon="5.08335">
        <ele>375.8</ele>
        <time>2000-1-1T5:07:27.000Z</time>
      </trkpt>
      <trkpt lat="44.21534" lon="5.08334">
        <ele>375.8</ele>
        <time>2000-1-1T5:07:37.000Z</time>
      </trkpt>
      <trkpt lat="44.21506" lon="5.08332">
        <ele>371</ele>
        <time>2000-1-1T5:07:47.000Z</time>
      </trkpt>
      <trkpt lat="44.21484" lon="5.08324">
        <ele>369</ele>
        <time>2000-1-1T5:07:57.000Z</time>
      </trkpt>
      <trkpt lat="44.21465" lon="5.08313">
        <ele>368</ele>
        <time>2000-1-1T5:08:07.000Z</time>
      </trkpt>
      <trkpt lat="44.21456" lon="5.08309">
        <ele>371.7</ele>
        <time>2000-1-1T5:08:17.000Z</time>
      </trkpt>
      <trkpt lat="44.21423" lon="5.08293">
        <ele>364</ele>
        <time>2000-1-1T5:08:27.000Z</time>
      </trkpt>
      <trkpt lat="44.21402" lon="5.08285">
        <ele>364</ele>
        <time>2000-1-1T5:08:37.000Z</time>
      </trkpt>
      <trkpt lat="44.21396" lon="5.08281">
        <ele>368.5</ele>
        <time>2000-1-1T5:08:47.000Z</time>
      </trkpt>
      <trkpt lat="44.21387" lon="5.08271">
        <ele>367.3</ele>
        <time>2000-1-1T5:08:57.000Z</time>
      </trkpt>
      <trkpt lat="44.21375" lon="5.08252">
        <ele>364</ele>
        <time>2000-1-1T5:09:07.000Z</time>
      </trkpt>
      <trkpt lat="44.21363" lon="5.08234">
        <ele>362.3</ele>
        <time>2000-1-1T5:09:17.000Z</time>
      </trkpt>
      <trkpt lat="44.21362" lon="5.08231">
        <ele>364</ele>
        <time>2000-1-1T5:09:27.000Z</time>
      </trkpt>
      <trkpt lat="44.21352" lon="5.08202">
        <ele>365</ele>
        <time>2000-1-1T5:09:37.000Z</time>
      </trkpt>
      <trkpt lat="44.21345" lon="5.08167">
        <ele>366</ele>
        <time>2000-1-1T5:09:47.000Z</time>
      </trkpt>
      <trkpt lat="44.21342" lon="5.08157">
        <ele>356.6</ele>
        <time>2000-1-1T5:09:57.000Z</time>
      </trkpt>
      <trkpt lat="44.21341" lon="5.08127">
        <ele>366</ele>
        <time>2000-1-1T5:10:07.000Z</time>
      </trkpt>
      <trkpt lat="44.2135" lon="5.08096">
        <ele>361</ele>
        <time>2000-1-1T5:10:17.000Z</time>
      </trkpt>
      <trkpt lat="44.21369" lon="5.08084">
        <ele>361</ele>
        <time>2000-1-1T5:10:27.000Z</time>
      </trkpt>
      <trkpt lat="44.21389" lon="5.08069">
        <ele>352</ele>
        <time>2000-1-1T5:10:37.000Z</time>
      </trkpt>
      <trkpt lat="44.21406" lon="5.08062">
        <ele>350.5</ele>
        <time>2000-1-1T5:10:47.000Z</time>
      </trkpt>
      <trkpt lat="44.21426" lon="5.08044">
        <ele>338</ele>
        <time>2000-1-1T5:10:57.000Z</time>
      </trkpt>
      <trkpt lat="44.21421" lon="5.0802">
        <ele>343.9</ele>
        <time>2000-1-1T5:11:07.000Z</time>
      </trkpt>
      <trkpt lat="44.21413" lon="5.07993">
        <ele>339</ele>
        <time>2000-1-1T5:11:17.000Z</time>
      </trkpt>
      <trkpt lat="44.21401" lon="5.07971">
        <ele>336</ele>
        <time>2000-1-1T5:11:27.000Z</time>
      </trkpt>
      <trkpt lat="44.21396" lon="5.07965">
        <ele>337.6</ele>
        <time>2000-1-1T5:11:37.000Z</time>
      </trkpt>
      <trkpt lat="44.21384" lon="5.07956">
        <ele>337</ele>
        <time>2000-1-1T5:11:47.000Z</time>
      </trkpt>
      <trkpt lat="44.21371" lon="5.07949">
        <ele>336.8</ele>
        <time>2000-1-1T5:11:57.000Z</time>
      </trkpt>
      <trkpt lat="44.21344" lon="5.07942">
        <ele>335</ele>
        <time>2000-1-1T5:12:07.000Z</time>
      </trkpt>
      <trkpt lat="44.21338" lon="5.07936">
        <ele>335.4</ele>
        <time>2000-1-1T5:12:17.000Z</time>
      </trkpt>
      <trkpt lat="44.21332" lon="5.07907">
        <ele>336</ele>
        <time>2000-1-1T5:12:27.000Z</time>
      </trkpt>
      <trkpt lat="44.21331" lon="5.07872">
        <ele>337</ele>
        <time>2000-1-1T5:12:37.000Z</time>
      </trkpt>
      <trkpt lat="44.21328" lon="5.07843">
        <ele>342</ele>
        <time>2000-1-1T5:12:47.000Z</time>
      </trkpt>
      <trkpt lat="44.21332" lon="5.07838">
        <ele>332.9</ele>
        <time>2000-1-1T5:12:57.000Z</time>
      </trkpt>
      <trkpt lat="44.21335" lon="5.07837">
        <ele>333</ele>
        <time>2000-1-1T5:13:07.000Z</time>
      </trkpt>
      <trkpt lat="44.2135" lon="5.07835">
        <ele>342</ele>
        <time>2000-1-1T5:13:17.000Z</time>
      </trkpt>
      <trkpt lat="44.21358" lon="5.07823">
        <ele>336.8</ele>
        <time>2000-1-1T5:13:27.000Z</time>
      </trkpt>
      <trkpt lat="44.21345" lon="5.07805">
        <ele>348</ele>
        <time>2000-1-1T5:13:37.000Z</time>
      </trkpt>
      <trkpt lat="44.21342" lon="5.07794">
        <ele>339.1</ele>
        <time>2000-1-1T5:13:47.000Z</time>
      </trkpt>
      <trkpt lat="44.21336" lon="5.07785">
        <ele>340.1</ele>
        <time>2000-1-1T5:13:57.000Z</time>
      </trkpt>
      <trkpt lat="44.21333" lon="5.0778">
        <ele>353</ele>
        <time>2000-1-1T5:14:07.000Z</time>
      </trkpt>
      <trkpt lat="44.21323" lon="5.07772">
        <ele>342.9</ele>
        <time>2000-1-1T5:14:17.000Z</time>
      </trkpt>
      <trkpt lat="44.21301" lon="5.07747">
        <ele>354</ele>
        <time>2000-1-1T5:14:27.000Z</time>
      </trkpt>
      <trkpt lat="44.21293" lon="5.0773">
        <ele>350.6</ele>
        <time>2000-1-1T5:14:37.000Z</time>
      </trkpt>
      <trkpt lat="44.21288" lon="5.0771">
        <ele>356</ele>
        <time>2000-1-1T5:14:47.000Z</time>
      </trkpt>
      <trkpt lat="44.21282" lon="5.0769">
        <ele>356</ele>
        <time>2000-1-1T5:14:57.000Z</time>
      </trkpt>
      <trkpt lat="44.21276" lon="5.07676">
        <ele>365</ele>
        <time>2000-1-1T5:15:07.000Z</time>
      </trkpt>
      <trkpt lat="44.21266" lon="5.07664">
        <ele>357.9</ele>
        <time>2000-1-1T5:15:17.000Z</time>
      </trkpt>
      <trkpt lat="44.21254" lon="5.07654">
        <ele>374</ele>
        <time>2000-1-1T5:15:27.000Z</time>
      </trkpt>
      <trkpt lat="44.21243" lon="5.07641">
        <ele>359.8</ele>
        <time>2000-1-1T5:15:37.000Z</time>
      </trkpt>
      <trkpt lat="44.21219" lon="5.07625">
        <ele>378</ele>
        <time>2000-1-1T5:15:47.000Z</time>
      </trkpt>
      <trkpt lat="44.21211" lon="5.07616">
        <ele>366.2</ele>
        <time>2000-1-1T5:15:57.000Z</time>
      </trkpt>
      <trkpt lat="44.21186" lon="5.07601">
        <ele>382</ele>
        <time>2000-1-1T5:16:07.000Z</time>
      </trkpt>
      <trkpt lat="44.2117" lon="5.07594">
        <ele>373.3</ele>
        <time>2000-1-1T5:16:17.000Z</time>
      </trkpt>
      <trkpt lat="44.21161" lon="5.07589">
        <ele>395</ele>
        <time>2000-1-1T5:16:27.000Z</time>
      </trkpt>
      <trkpt lat="44.21153" lon="5.07586">
        <ele>376.9</ele>
        <time>2000-1-1T5:16:37.000Z</time>
      </trkpt>
      <trkpt lat="44.21147" lon="5.07578">
        <ele>380.4</ele>
        <time>2000-1-1T5:16:47.000Z</time>
      </trkpt>
      <trkpt lat="44.21129" lon="5.07569">
        <ele>399</ele>
        <time>2000-1-1T5:16:57.000Z</time>
      </trkpt>
      <trkpt lat="44.21118" lon="5.07566">
        <ele>385.3</ele>
        <time>2000-1-1T5:17:07.000Z</time>
      </trkpt>
      <trkpt lat="44.21094" lon="5.07545">
        <ele>398</ele>
        <time>2000-1-1T5:17:17.000Z</time>
      </trkpt>
      <trkpt lat="44.21077" lon="5.07537">
        <ele>392.5</ele>
        <time>2000-1-1T5:17:27.000Z</time>
      </trkpt>
      <trkpt lat="44.21064" lon="5.07527">
        <ele>398</ele>
        <time>2000-1-1T5:17:37.000Z</time>
      </trkpt>
      <trkpt lat="44.21056" lon="5.07519">
        <ele>395.4</ele>
        <time>2000-1-1T5:17:47.000Z</time>
      </trkpt>
      <trkpt lat="44.21045" lon="5.07508">
        <ele>398</ele>
        <time>2000-1-1T5:17:57.000Z</time>
      </trkpt>
      <trkpt lat="44.21035" lon="5.07487">
        <ele>399.9</ele>
        <time>2000-1-1T5:18:07.000Z</time>
      </trkpt>
      <trkpt lat="44.21024" lon="5.07463">
        <ele>407</ele>
        <time>2000-1-1T5:18:17.000Z</time>
      </trkpt>
      <trkpt lat="44.21022" lon="5.07459">
        <ele>403.9</ele>
        <time>2000-1-1T5:18:27.000Z</time>
      </trkpt>
      <trkpt lat="44.2101" lon="5.07438">
        <ele>417</ele>
        <time>2000-1-1T5:18:37.000Z</time>
      </trkpt>
      <trkpt lat="44.21008" lon="5.07429">
        <ele>409.9</ele>
        <time>2000-1-1T5:18:47.000Z</time>
      </trkpt>
      <trkpt lat="44.21004" lon="5.07418">
        <ele>412.7</ele>
        <time>2000-1-1T5:18:57.000Z</time>
      </trkpt>
      <trkpt lat="44.20994" lon="5.07407">
        <ele>423</ele>
        <time>2000-1-1T5:19:07.000Z</time>
      </trkpt>
      <trkpt lat="44.20968" lon="5.07395">
        <ele>430</ele>
        <time>2000-1-1T5:19:17.000Z</time>
      </trkpt>
      <trkpt lat="44.20949" lon="5.0739">
        <ele>436</ele>
        <time>2000-1-1T5:19:27.000Z</time>
      </trkpt>
      <trkpt lat="44.20922" lon="5.07389">
        <ele>440</ele>
        <time>2000-1-1T5:19:37.000Z</time>
      </trkpt>
      <trkpt lat="44.20917" lon="5.07388">
        <ele>421.4</ele>
        <time>2000-1-1T5:19:47.000Z</time>
      </trkpt>
      <trkpt lat="44.20913" lon="5.07388">
        <ele>421.6</ele>
        <time>2000-1-1T5:19:57.000Z</time>
      </trkpt>
      <trkpt lat="44.20895" lon="5.07383">
        <ele>444</ele>
        <time>2000-1-1T5:20:07.000Z</time>
      </trkpt>
      <trkpt lat="44.20879" lon="5.07376">
        <ele>426.1</ele>
        <time>2000-1-1T5:20:17.000Z</time>
      </trkpt>
      <trkpt lat="44.20869" lon="5.07369">
        <ele>445</ele>
        <time>2000-1-1T5:20:27.000Z</time>
      </trkpt>
      <trkpt lat="44.20855" lon="5.07363">
        <ele>430</ele>
        <time>2000-1-1T5:20:37.000Z</time>
      </trkpt>
      <trkpt lat="44.20841" lon="5.07355">
        <ele>447</ele>
        <time>2000-1-1T5:20:47.000Z</time>
      </trkpt>
      <trkpt lat="44.20825" lon="5.07348">
        <ele>434.6</ele>
        <time>2000-1-1T5:20:57.000Z</time>
      </trkpt>
      <trkpt lat="44.20803" lon="5.07343">
        <ele>454</ele>
        <time>2000-1-1T5:21:07.000Z</time>
      </trkpt>
      <trkpt lat="44.20776" lon="5.07346">
        <ele>456</ele>
        <time>2000-1-1T5:21:17.000Z</time>
      </trkpt>
      <trkpt lat="44.20761" lon="5.07344">
        <ele>443.2</ele>
        <time>2000-1-1T5:21:27.000Z</time>
      </trkpt>
      <trkpt lat="44.20728" lon="5.07334">
        <ele>457</ele>
        <time>2000-1-1T5:21:37.000Z</time>
      </trkpt>
      <trkpt lat="44.20709" lon="5.07321">
        <ele>462</ele>
        <time>2000-1-1T5:21:47.000Z</time>
      </trkpt>
      <trkpt lat="44.20697" lon="5.07316">
        <ele>454.1</ele>
        <time>2000-1-1T5:21:57.000Z</time>
      </trkpt>
      <trkpt lat="44.20685" lon="5.07308">
        <ele>474</ele>
        <time>2000-1-1T5:22:07.000Z</time>
      </trkpt>
      <trkpt lat="44.20681" lon="5.07307">
        <ele>457.1</ele>
        <time>2000-1-1T5:22:17.000Z</time>
      </trkpt>
      <trkpt lat="44.20661" lon="5.07294">
        <ele>479</ele>
        <time>2000-1-1T5:22:27.000Z</time>
      </trkpt>
      <trkpt lat="44.20629" lon="5.07283">
        <ele>480</ele>
        <time>2000-1-1T5:22:37.000Z</time>
      </trkpt>
      <trkpt lat="44.20619" lon="5.07277">
        <ele>469.5</ele>
        <time>2000-1-1T5:22:47.000Z</time>
      </trkpt>
      <trkpt lat="44.20608" lon="5.07272">
        <ele>480</ele>
        <time>2000-1-1T5:22:57.000Z</time>
      </trkpt>
      <trkpt lat="44.20598" lon="5.07259">
        <ele>476.4</ele>
        <time>2000-1-1T5:23:07.000Z</time>
      </trkpt>
      <trkpt lat="44.20592" lon="5.07254">
        <ele>486</ele>
        <time>2000-1-1T5:23:17.000Z</time>
      </trkpt>
      <trkpt lat="44.2058" lon="5.07247">
        <ele>480</ele>
        <time>2000-1-1T5:23:27.000Z</time>
      </trkpt>
      <trkpt lat="44.20573" lon="5.07242">
        <ele>486</ele>
        <time>2000-1-1T5:23:37.000Z</time>
      </trkpt>
      <trkpt lat="44.20564" lon="5.07229">
        <ele>484.6</ele>
        <time>2000-1-1T5:23:47.000Z</time>
      </trkpt>
      <trkpt lat="44.2055" lon="5.07219">
        <ele>491</ele>
        <time>2000-1-1T5:23:57.000Z</time>
      </trkpt>
      <trkpt lat="44.20531" lon="5.07207">
        <ele>493</ele>
        <time>2000-1-1T5:24:07.000Z</time>
      </trkpt>
      <trkpt lat="44.20522" lon="5.07205">
        <ele>490.1</ele>
        <time>2000-1-1T5:24:17.000Z</time>
      </trkpt>
      <trkpt lat="44.20515" lon="5.07201">
        <ele>491.3</ele>
        <time>2000-1-1T5:24:27.000Z</time>
      </trkpt>
      <trkpt lat="44.20513" lon="5.07196">
        <ele>495</ele>
        <time>2000-1-1T5:24:37.000Z</time>
      </trkpt>
      <trkpt lat="44.20513" lon="5.07191">
        <ele>492.4</ele>
        <time>2000-1-1T5:24:47.000Z</time>
      </trkpt>
      <trkpt lat="44.20508" lon="5.07171">
        <ele>494.4</ele>
        <time>2000-1-1T5:24:57.000Z</time>
      </trkpt>
      <trkpt lat="44.20505" lon="5.07166">
        <ele>495</ele>
        <time>2000-1-1T5:25:07.000Z</time>
      </trkpt>
      <trkpt lat="44.20504" lon="5.07155">
        <ele>495.7</ele>
        <time>2000-1-1T5:25:17.000Z</time>
      </trkpt>
      <trkpt lat="44.2049" lon="5.07144">
        <ele>500</ele>
        <time>2000-1-1T5:25:27.000Z</time>
      </trkpt>
      <trkpt lat="44.20477" lon="5.07118">
        <ele>500</ele>
        <time>2000-1-1T5:25:37.000Z</time>
      </trkpt>
      <trkpt lat="44.20472" lon="5.0711">
        <ele>496.7</ele>
        <time>2000-1-1T5:25:47.000Z</time>
      </trkpt>
      <trkpt lat="44.2046" lon="5.0709">
        <ele>505</ele>
        <time>2000-1-1T5:25:57.000Z</time>
      </trkpt>
      <trkpt lat="44.20453" lon="5.07081">
        <ele>493.5</ele>
        <time>2000-1-1T5:26:07.000Z</time>
      </trkpt>
      <trkpt lat="44.20448" lon="5.07076">
        <ele>493.2</ele>
        <time>2000-1-1T5:26:17.000Z</time>
      </trkpt>
      <trkpt lat="44.20445" lon="5.07071">
        <ele>505</ele>
        <time>2000-1-1T5:26:27.000Z</time>
      </trkpt>
      <trkpt lat="44.20435" lon="5.07064">
        <ele>492.7</ele>
        <time>2000-1-1T5:26:37.000Z</time>
      </trkpt>
      <trkpt lat="44.20436" lon="5.0706">
        <ele>492</ele>
        <time>2000-1-1T5:26:47.000Z</time>
      </trkpt>
      <trkpt lat="44.20439" lon="5.0705">
        <ele>502</ele>
        <time>2000-1-1T5:26:57.000Z</time>
      </trkpt>
      <trkpt lat="44.20469" lon="5.07026">
        <ele>503</ele>
        <time>2000-1-1T5:27:07.000Z</time>
      </trkpt>
      <trkpt lat="44.20484" lon="5.07008">
        <ele>500</ele>
        <time>2000-1-1T5:27:17.000Z</time>
      </trkpt>
      <trkpt lat="44.20492" lon="5.06992">
        <ele>492.9</ele>
        <time>2000-1-1T5:27:27.000Z</time>
      </trkpt>
      <trkpt lat="44.205" lon="5.06967">
        <ele>497</ele>
        <time>2000-1-1T5:27:37.000Z</time>
      </trkpt>
      <trkpt lat="44.20504" lon="5.06944">
        <ele>491.9</ele>
        <time>2000-1-1T5:27:47.000Z</time>
      </trkpt>
      <trkpt lat="44.20514" lon="5.06914">
        <ele>495</ele>
        <time>2000-1-1T5:27:57.000Z</time>
      </trkpt>
      <trkpt lat="44.2052" lon="5.06909">
        <ele>480.8</ele>
        <time>2000-1-1T5:28:07.000Z</time>
      </trkpt>
      <trkpt lat="44.20521" lon="5.06907">
        <ele>480</ele>
        <time>2000-1-1T5:28:17.000Z</time>
      </trkpt>
      <trkpt lat="44.20515" lon="5.06884">
        <ele>492</ele>
        <time>2000-1-1T5:28:27.000Z</time>
      </trkpt>
      <trkpt lat="44.20503" lon="5.0684">
        <ele>476</ele>
        <time>2000-1-1T5:28:37.000Z</time>
      </trkpt>
      <trkpt lat="44.20493" lon="5.06792">
        <ele>476</ele>
        <time>2000-1-1T5:28:47.000Z</time>
      </trkpt>
      <trkpt lat="44.20493" lon="5.06783">
        <ele>472.9</ele>
        <time>2000-1-1T5:28:57.000Z</time>
      </trkpt>
      <trkpt lat="44.20489" lon="5.06774">
        <ele>472.9</ele>
        <time>2000-1-1T5:29:07.000Z</time>
      </trkpt>
      <trkpt lat="44.20486" lon="5.06761">
        <ele>475</ele>
        <time>2000-1-1T5:29:17.000Z</time>
      </trkpt>
      <trkpt lat="44.20483" lon="5.06754">
        <ele>472.7</ele>
        <time>2000-1-1T5:29:27.000Z</time>
      </trkpt>
      <trkpt lat="44.20475" lon="5.06724">
        <ele>474</ele>
        <time>2000-1-1T5:29:37.000Z</time>
      </trkpt>
      <trkpt lat="44.20473" lon="5.0672">
        <ele>471.6</ele>
        <time>2000-1-1T5:29:47.000Z</time>
      </trkpt>
      <trkpt lat="44.20471" lon="5.06714">
        <ele>471.5</ele>
        <time>2000-1-1T5:29:57.000Z</time>
      </trkpt>
      <trkpt lat="44.20472" lon="5.06692">
        <ele>474</ele>
        <time>2000-1-1T5:30:07.000Z</time>
      </trkpt>
      <trkpt lat="44.20471" lon="5.06658">
        <ele>474</ele>
        <time>2000-1-1T5:30:17.000Z</time>
      </trkpt>
      <trkpt lat="44.20472" lon="5.06644">
        <ele>465.6</ele>
        <time>2000-1-1T5:30:27.000Z</time>
      </trkpt>
      <trkpt lat="44.20471" lon="5.06617">
        <ele>472</ele>
        <time>2000-1-1T5:30:37.000Z</time>
      </trkpt>
      <trkpt lat="44.20472" lon="5.06614">
        <ele>463.2</ele>
        <time>2000-1-1T5:30:47.000Z</time>
      </trkpt>
      <trkpt lat="44.20471" lon="5.06608">
        <ele>463.3</ele>
        <time>2000-1-1T5:30:57.000Z</time>
      </trkpt>
      <trkpt lat="44.20469" lon="5.06605">
        <ele>463.5</ele>
        <time>2000-1-1T5:31:07.000Z</time>
      </trkpt>
      <trkpt lat="44.20468" lon="5.06603">
        <ele>463.6</ele>
        <time>2000-1-1T5:31:17.000Z</time>
      </trkpt>
      <trkpt lat="44.20451" lon="5.06597">
        <ele>470</ele>
        <time>2000-1-1T5:31:27.000Z</time>
      </trkpt>
      <trkpt lat="44.2045" lon="5.06592">
        <ele>462.6</ele>
        <time>2000-1-1T5:31:37.000Z</time>
      </trkpt>
      <trkpt lat="44.20441" lon="5.06573">
        <ele>470</ele>
        <time>2000-1-1T5:31:47.000Z</time>
      </trkpt>
      <trkpt lat="44.20427" lon="5.06564">
        <ele>458.3</ele>
        <time>2000-1-1T5:31:57.000Z</time>
      </trkpt>
      <trkpt lat="44.20418" lon="5.06557">
        <ele>465</ele>
        <time>2000-1-1T5:32:07.000Z</time>
      </trkpt>
      <trkpt lat="44.20411" lon="5.06554">
        <ele>455.5</ele>
        <time>2000-1-1T5:32:17.000Z</time>
      </trkpt>
      <trkpt lat="44.20407" lon="5.0655">
        <ele>454.8</ele>
        <time>2000-1-1T5:32:27.000Z</time>
      </trkpt>
      <trkpt lat="44.20399" lon="5.06546">
        <ele>460</ele>
        <time>2000-1-1T5:32:37.000Z</time>
      </trkpt>
      <trkpt lat="44.20393" lon="5.0654">
        <ele>452.2</ele>
        <time>2000-1-1T5:32:47.000Z</time>
      </trkpt>
      <trkpt lat="44.20389" lon="5.06533">
        <ele>450.7</ele>
        <time>2000-1-1T5:32:57.000Z</time>
      </trkpt>
      <trkpt lat="44.20368" lon="5.06518">
        <ele>454</ele>
        <time>2000-1-1T5:33:07.000Z</time>
      </trkpt>
      <trkpt lat="44.20355" lon="5.06507">
        <ele>445.1</ele>
        <time>2000-1-1T5:33:17.000Z</time>
      </trkpt>
      <trkpt lat="44.20345" lon="5.06491">
        <ele>451</ele>
        <time>2000-1-1T5:33:27.000Z</time>
      </trkpt>
      <trkpt lat="44.20332" lon="5.06475">
        <ele>437.6</ele>
        <time>2000-1-1T5:33:37.000Z</time>
      </trkpt>
      <trkpt lat="44.20323" lon="5.0647">
        <ele>445</ele>
        <time>2000-1-1T5:33:47.000Z</time>
      </trkpt>
      <trkpt lat="44.20317" lon="5.06461">
        <ele>433.4</ele>
        <time>2000-1-1T5:33:57.000Z</time>
      </trkpt>
      <trkpt lat="44.20294" lon="5.06443">
        <ele>440</ele>
        <time>2000-1-1T5:34:07.000Z</time>
      </trkpt>
      <trkpt lat="44.20286" lon="5.06422">
        <ele>423</ele>
        <time>2000-1-1T5:34:17.000Z</time>
      </trkpt>
      <trkpt lat="44.20288" lon="5.06416">
        <ele>436</ele>
        <time>2000-1-1T5:34:27.000Z</time>
      </trkpt>
      <trkpt lat="44.20291" lon="5.06403">
        <ele>422.8</ele>
        <time>2000-1-1T5:34:37.000Z</time>
      </trkpt>
      <trkpt lat="44.20291" lon="5.06396">
        <ele>422.7</ele>
        <time>2000-1-1T5:34:47.000Z</time>
      </trkpt>
      <trkpt lat="44.20287" lon="5.06389">
        <ele>436</ele>
        <time>2000-1-1T5:34:57.000Z</time>
      </trkpt>
      <trkpt lat="44.20286" lon="5.06382">
        <ele>425.9</ele>
        <time>2000-1-1T5:35:07.000Z</time>
      </trkpt>
      <trkpt lat="44.20281" lon="5.06375">
        <ele>428.5</ele>
        <time>2000-1-1T5:35:17.000Z</time>
      </trkpt>
      <trkpt lat="44.20278" lon="5.06369">
        <ele>430.5</ele>
        <time>2000-1-1T5:35:27.000Z</time>
      </trkpt>
      <trkpt lat="44.20278" lon="5.06363">
        <ele>442</ele>
        <time>2000-1-1T5:35:37.000Z</time>
      </trkpt>
      <trkpt lat="44.20271" lon="5.06329">
        <ele>447</ele>
        <time>2000-1-1T5:35:47.000Z</time>
      </trkpt>
      <trkpt lat="44.20266" lon="5.06318">
        <ele>444.2</ele>
        <time>2000-1-1T5:35:57.000Z</time>
      </trkpt>
      <trkpt lat="44.2026" lon="5.06313">
        <ele>445.1</ele>
        <time>2000-1-1T5:36:07.000Z</time>
      </trkpt>
      <trkpt lat="44.20257" lon="5.06314">
        <ele>454</ele>
        <time>2000-1-1T5:36:17.000Z</time>
      </trkpt>
      <trkpt lat="44.20253" lon="5.06308">
        <ele>445.7</ele>
        <time>2000-1-1T5:36:27.000Z</time>
      </trkpt>
      <trkpt lat="44.20241" lon="5.06296">
        <ele>461</ele>
        <time>2000-1-1T5:36:37.000Z</time>
      </trkpt>
      <trkpt lat="44.20232" lon="5.06292">
        <ele>447.8</ele>
        <time>2000-1-1T5:36:47.000Z</time>
      </trkpt>
      <trkpt lat="44.20226" lon="5.06291">
        <ele>447.5</ele>
        <time>2000-1-1T5:36:57.000Z</time>
      </trkpt>
      <trkpt lat="44.20218" lon="5.06285">
        <ele>463</ele>
        <time>2000-1-1T5:37:07.000Z</time>
      </trkpt>
      <trkpt lat="44.20213" lon="5.06282">
        <ele>449.8</ele>
        <time>2000-1-1T5:37:17.000Z</time>
      </trkpt>
      <trkpt lat="44.20208" lon="5.06275">
        <ele>451.4</ele>
        <time>2000-1-1T5:37:27.000Z</time>
      </trkpt>
      <trkpt lat="44.202" lon="5.06271">
        <ele>470</ele>
        <time>2000-1-1T5:37:37.000Z</time>
      </trkpt>
      <trkpt lat="44.20188" lon="5.06251">
        <ele>456.7</ele>
        <time>2000-1-1T5:37:47.000Z</time>
      </trkpt>
      <trkpt lat="44.20176" lon="5.06237">
        <ele>476</ele>
        <time>2000-1-1T5:37:57.000Z</time>
      </trkpt>
      <trkpt lat="44.20167" lon="5.06222">
        <ele>463</ele>
        <time>2000-1-1T5:38:07.000Z</time>
      </trkpt>
      <trkpt lat="44.20145" lon="5.06196">
        <ele>477</ele>
        <time>2000-1-1T5:38:17.000Z</time>
      </trkpt>
      <trkpt lat="44.20132" lon="5.06192">
        <ele>469.1</ele>
        <time>2000-1-1T5:38:27.000Z</time>
      </trkpt>
      <trkpt lat="44.20125" lon="5.06195">
        <ele>475</ele>
        <time>2000-1-1T5:38:37.000Z</time>
      </trkpt>
      <trkpt lat="44.20122" lon="5.06195">
        <ele>469</ele>
        <time>2000-1-1T5:38:47.000Z</time>
      </trkpt>
      <trkpt lat="44.20096" lon="5.0618">
        <ele>474</ele>
        <time>2000-1-1T5:38:57.000Z</time>
      </trkpt>
      <trkpt lat="44.20076" lon="5.06174">
        <ele>474</ele>
        <time>2000-1-1T5:39:07.000Z</time>
      </trkpt>
      <trkpt lat="44.20061" lon="5.06167">
        <ele>461.7</ele>
        <time>2000-1-1T5:39:17.000Z</time>
      </trkpt>
      <trkpt lat="44.20053" lon="5.06161">
        <ele>473</ele>
        <time>2000-1-1T5:39:27.000Z</time>
      </trkpt>
      <trkpt lat="44.2005" lon="5.06157">
        <ele>459.6</ele>
        <time>2000-1-1T5:39:37.000Z</time>
      </trkpt>
      <trkpt lat="44.20044" lon="5.06147">
        <ele>457.7</ele>
        <time>2000-1-1T5:39:47.000Z</time>
      </trkpt>
      <trkpt lat="44.20037" lon="5.06128">
        <ele>462</ele>
        <time>2000-1-1T5:39:57.000Z</time>
      </trkpt>
      <trkpt lat="44.20034" lon="5.06116">
        <ele>452.1</ele>
        <time>2000-1-1T5:40:07.000Z</time>
      </trkpt>
      <trkpt lat="44.20033" lon="5.06111">
        <ele>451.3</ele>
        <time>2000-1-1T5:40:17.000Z</time>
      </trkpt>
      <trkpt lat="44.20029" lon="5.06101">
        <ele>462</ele>
        <time>2000-1-1T5:40:27.000Z</time>
      </trkpt>
      <trkpt lat="44.20026" lon="5.06086">
        <ele>447.2</ele>
        <time>2000-1-1T5:40:37.000Z</time>
      </trkpt>
      <trkpt lat="44.20022" lon="5.06084">
        <ele>446.7</ele>
        <time>2000-1-1T5:40:47.000Z</time>
      </trkpt>
      <trkpt lat="44.20006" lon="5.06085">
        <ele>456</ele>
        <time>2000-1-1T5:40:57.000Z</time>
      </trkpt>
      <trkpt lat="44.19998" lon="5.06088">
        <ele>445.8</ele>
        <time>2000-1-1T5:41:07.000Z</time>
      </trkpt>
      <trkpt lat="44.1999" lon="5.06085">
        <ele>445.9</ele>
        <time>2000-1-1T5:41:17.000Z</time>
      </trkpt>
      <trkpt lat="44.19979" lon="5.06072">
        <ele>456</ele>
        <time>2000-1-1T5:41:27.000Z</time>
      </trkpt>
      <trkpt lat="44.1997" lon="5.06056">
        <ele>443.3</ele>
        <time>2000-1-1T5:41:37.000Z</time>
      </trkpt>
      <trkpt lat="44.1997" lon="5.06047">
        <ele>455</ele>
        <time>2000-1-1T5:41:47.000Z</time>
      </trkpt>
      <trkpt lat="44.19971" lon="5.06039">
        <ele>446.1</ele>
        <time>2000-1-1T5:41:57.000Z</time>
      </trkpt>
      <trkpt lat="44.19978" lon="5.06018">
        <ele>455</ele>
        <time>2000-1-1T5:42:07.000Z</time>
      </trkpt>
      <trkpt lat="44.19977" lon="5.05999">
        <ele>452.8</ele>
        <time>2000-1-1T5:42:17.000Z</time>
      </trkpt>
      <trkpt lat="44.19978" lon="5.05992">
        <ele>453.6</ele>
        <time>2000-1-1T5:42:27.000Z</time>
      </trkpt>
      <trkpt lat="44.19978" lon="5.05982">
        <ele>463</ele>
        <time>2000-1-1T5:42:37.000Z</time>
      </trkpt>
      <trkpt lat="44.19979" lon="5.0598">
        <ele>455</ele>
        <time>2000-1-1T5:42:47.000Z</time>
      </trkpt>
      <trkpt lat="44.19991" lon="5.05971">
        <ele>456.6</ele>
        <time>2000-1-1T5:42:57.000Z</time>
      </trkpt>
      <trkpt lat="44.20006" lon="5.05968">
        <ele>466</ele>
        <time>2000-1-1T5:43:07.000Z</time>
      </trkpt>
      <trkpt lat="44.20021" lon="5.05965">
        <ele>460</ele>
        <time>2000-1-1T5:43:17.000Z</time>
      </trkpt>
      <trkpt lat="44.20028" lon="5.05962">
        <ele>466</ele>
        <time>2000-1-1T5:43:27.000Z</time>
      </trkpt>
      <trkpt lat="44.20037" lon="5.05956">
        <ele>462.3</ele>
        <time>2000-1-1T5:43:37.000Z</time>
      </trkpt>
      <trkpt lat="44.20044" lon="5.05947">
        <ele>463.8</ele>
        <time>2000-1-1T5:43:47.000Z</time>
      </trkpt>
      <trkpt lat="44.2005" lon="5.05935">
        <ele>474</ele>
        <time>2000-1-1T5:43:57.000Z</time>
      </trkpt>
      <trkpt lat="44.20055" lon="5.0593">
        <ele>467.3</ele>
        <time>2000-1-1T5:44:07.000Z</time>
      </trkpt>
      <trkpt lat="44.20067" lon="5.0591">
        <ele>474</ele>
        <time>2000-1-1T5:44:17.000Z</time>
      </trkpt>
      <trkpt lat="44.20079" lon="5.05894">
        <ele>470.8</ele>
        <time>2000-1-1T5:44:27.000Z</time>
      </trkpt>
      <trkpt lat="44.20081" lon="5.05889">
        <ele>478</ele>
        <time>2000-1-1T5:44:37.000Z</time>
      </trkpt>
      <trkpt lat="44.20087" lon="5.05878">
        <ele>472.9</ele>
        <time>2000-1-1T5:44:47.000Z</time>
      </trkpt>
      <trkpt lat="44.20091" lon="5.05874">
        <ele>473</ele>
        <time>2000-1-1T5:44:57.000Z</time>
      </trkpt>
      <trkpt lat="44.20108" lon="5.05841">
        <ele>484</ele>
        <time>2000-1-1T5:45:07.000Z</time>
      </trkpt>
      <trkpt lat="44.20119" lon="5.05824">
        <ele>476.7</ele>
        <time>2000-1-1T5:45:17.000Z</time>
      </trkpt>
      <trkpt lat="44.20123" lon="5.05815">
        <ele>485</ele>
        <time>2000-1-1T5:45:27.000Z</time>
      </trkpt>
      <trkpt lat="44.20129" lon="5.05806">
        <ele>478.5</ele>
        <time>2000-1-1T5:45:37.000Z</time>
      </trkpt>
      <trkpt lat="44.20143" lon="5.05779">
        <ele>486</ele>
        <time>2000-1-1T5:45:47.000Z</time>
      </trkpt>
      <trkpt lat="44.20151" lon="5.05757">
        <ele>481.6</ele>
        <time>2000-1-1T5:45:57.000Z</time>
      </trkpt>
      <trkpt lat="44.20159" lon="5.05731">
        <ele>491</ele>
        <time>2000-1-1T5:46:07.000Z</time>
      </trkpt>
      <trkpt lat="44.20162" lon="5.05706">
        <ele>486.1</ele>
        <time>2000-1-1T5:46:17.000Z</time>
      </trkpt>
      <trkpt lat="44.20166" lon="5.05685">
        <ele>492</ele>
        <time>2000-1-1T5:46:27.000Z</time>
      </trkpt>
      <trkpt lat="44.20167" lon="5.05665">
        <ele>488.9</ele>
        <time>2000-1-1T5:46:37.000Z</time>
      </trkpt>
      <trkpt lat="44.2016" lon="5.05637">
        <ele>494</ele>
        <time>2000-1-1T5:46:47.000Z</time>
      </trkpt>
      <trkpt lat="44.20142" lon="5.05614">
        <ele>494</ele>
        <time>2000-1-1T5:46:57.000Z</time>
      </trkpt>
      <trkpt lat="44.20122" lon="5.05606">
        <ele>495</ele>
        <time>2000-1-1T5:47:07.000Z</time>
      </trkpt>
      <trkpt lat="44.20099" lon="5.05607">
        <ele>496</ele>
        <time>2000-1-1T5:47:17.000Z</time>
      </trkpt>
      <trkpt lat="44.20082" lon="5.05606">
        <ele>491.5</ele>
        <time>2000-1-1T5:47:27.000Z</time>
      </trkpt>
      <trkpt lat="44.20079" lon="5.05604">
        <ele>496</ele>
        <time>2000-1-1T5:47:37.000Z</time>
      </trkpt>
      <trkpt lat="44.20072" lon="5.05589">
        <ele>491.5</ele>
        <time>2000-1-1T5:47:47.000Z</time>
      </trkpt>
      <trkpt lat="44.20061" lon="5.05545">
        <ele>497</ele>
        <time>2000-1-1T5:47:57.000Z</time>
      </trkpt>
      <trkpt lat="44.20056" lon="5.05514">
        <ele>497</ele>
        <time>2000-1-1T5:48:07.000Z</time>
      </trkpt>
      <trkpt lat="44.20054" lon="5.05485">
        <ele>496</ele>
        <time>2000-1-1T5:48:17.000Z</time>
      </trkpt>
      <trkpt lat="44.2005" lon="5.05453">
        <ele>494</ele>
        <time>2000-1-1T5:48:27.000Z</time>
      </trkpt>
      <trkpt lat="44.20033" lon="5.05432">
        <ele>491</ele>
        <time>2000-1-1T5:48:37.000Z</time>
      </trkpt>
      <trkpt lat="44.2001" lon="5.0543">
        <ele>488</ele>
        <time>2000-1-1T5:48:47.000Z</time>
      </trkpt>
      <trkpt lat="44.19984" lon="5.05432">
        <ele>483</ele>
        <time>2000-1-1T5:48:57.000Z</time>
      </trkpt>
      <trkpt lat="44.19959" lon="5.05438">
        <ele>483</ele>
        <time>2000-1-1T5:49:07.000Z</time>
      </trkpt>
      <trkpt lat="44.1994" lon="5.05451">
        <ele>484</ele>
        <time>2000-1-1T5:49:17.000Z</time>
      </trkpt>
      <trkpt lat="44.19922" lon="5.05471">
        <ele>484</ele>
        <time>2000-1-1T5:49:27.000Z</time>
      </trkpt>
      <trkpt lat="44.19908" lon="5.055">
        <ele>484</ele>
        <time>2000-1-1T5:49:37.000Z</time>
      </trkpt>
      <trkpt lat="44.19893" lon="5.05539">
        <ele>485</ele>
        <time>2000-1-1T5:49:47.000Z</time>
      </trkpt>
      <trkpt lat="44.19884" lon="5.05548">
        <ele>485.5</ele>
        <time>2000-1-1T5:49:57.000Z</time>
      </trkpt>
      <trkpt lat="44.19876" lon="5.05548">
        <ele>485</ele>
        <time>2000-1-1T5:50:07.000Z</time>
      </trkpt>
      <trkpt lat="44.19873" lon="5.05546">
        <ele>485.5</ele>
        <time>2000-1-1T5:50:17.000Z</time>
      </trkpt>
      <trkpt lat="44.1987" lon="5.05535">
        <ele>485</ele>
        <time>2000-1-1T5:50:27.000Z</time>
      </trkpt>
      <trkpt lat="44.19866" lon="5.05509">
        <ele>485</ele>
        <time>2000-1-1T5:50:37.000Z</time>
      </trkpt>
      <trkpt lat="44.19869" lon="5.05502">
        <ele>483.3</ele>
        <time>2000-1-1T5:50:47.000Z</time>
      </trkpt>
      <trkpt lat="44.19873" lon="5.05496">
        <ele>482.4</ele>
        <time>2000-1-1T5:50:57.000Z</time>
      </trkpt>
      <trkpt lat="44.19878" lon="5.05475">
        <ele>485</ele>
        <time>2000-1-1T5:51:07.000Z</time>
      </trkpt>
      <trkpt lat="44.1988" lon="5.05467">
        <ele>479.7</ele>
        <time>2000-1-1T5:51:17.000Z</time>
      </trkpt>
      <trkpt lat="44.19883" lon="5.05446">
        <ele>486</ele>
        <time>2000-1-1T5:51:27.000Z</time>
      </trkpt>
      <trkpt lat="44.19886" lon="5.05428">
        <ele>476.1</ele>
        <time>2000-1-1T5:51:37.000Z</time>
      </trkpt>
      <trkpt lat="44.19888" lon="5.05419">
        <ele>487</ele>
        <time>2000-1-1T5:51:47.000Z</time>
      </trkpt>
      <trkpt lat="44.1989" lon="5.05414">
        <ele>474.1</ele>
        <time>2000-1-1T5:51:57.000Z</time>
      </trkpt>
      <trkpt lat="44.19896" lon="5.05399">
        <ele>474.5</ele>
        <time>2000-1-1T5:52:07.000Z</time>
      </trkpt>
      <trkpt lat="44.199" lon="5.05392">
        <ele>487</ele>
        <time>2000-1-1T5:52:17.000Z</time>
      </trkpt>
      <trkpt lat="44.19901" lon="5.05389">
        <ele>474</ele>
        <time>2000-1-1T5:52:27.000Z</time>
      </trkpt>
      <trkpt lat="44.19903" lon="5.05379">
        <ele>473.3</ele>
        <time>2000-1-1T5:52:37.000Z</time>
      </trkpt>
      <trkpt lat="44.19906" lon="5.05374">
        <ele>472.6</ele>
        <time>2000-1-1T5:52:47.000Z</time>
      </trkpt>
      <trkpt lat="44.19907" lon="5.05372">
        <ele>472.2</ele>
        <time>2000-1-1T5:52:57.000Z</time>
      </trkpt>
      <trkpt lat="44.19912" lon="5.05364">
        <ele>482</ele>
        <time>2000-1-1T5:53:07.000Z</time>
      </trkpt>
      <trkpt lat="44.19932" lon="5.0534">
        <ele>481</ele>
        <time>2000-1-1T5:53:17.000Z</time>
      </trkpt>
      <trkpt lat="44.1995" lon="5.05324">
        <ele>480</ele>
        <time>2000-1-1T5:53:27.000Z</time>
      </trkpt>
      <trkpt lat="44.19964" lon="5.05311">
        <ele>462.8</ele>
        <time>2000-1-1T5:53:37.000Z</time>
      </trkpt>
      <trkpt lat="44.19973" lon="5.05305">
        <ele>479</ele>
        <time>2000-1-1T5:53:47.000Z</time>
      </trkpt>
      <trkpt lat="44.19984" lon="5.05291">
        <ele>459.9</ele>
        <time>2000-1-1T5:53:57.000Z</time>
      </trkpt>
      <trkpt lat="44.20002" lon="5.05278">
        <ele>471</ele>
        <time>2000-1-1T5:54:07.000Z</time>
      </trkpt>
      <trkpt lat="44.20008" lon="5.05274">
        <ele>455.3</ele>
        <time>2000-1-1T5:54:17.000Z</time>
      </trkpt>
      <trkpt lat="44.20038" lon="5.05247">
        <ele>468</ele>
        <time>2000-1-1T5:54:27.000Z</time>
      </trkpt>
      <trkpt lat="44.20042" lon="5.05242">
        <ele>450.1</ele>
        <time>2000-1-1T5:54:37.000Z</time>
      </trkpt>
      <trkpt lat="44.20056" lon="5.05227">
        <ele>463</ele>
        <time>2000-1-1T5:54:47.000Z</time>
      </trkpt>
      <trkpt lat="44.20062" lon="5.0522">
        <ele>445.3</ele>
        <time>2000-1-1T5:54:57.000Z</time>
      </trkpt>
      <trkpt lat="44.20075" lon="5.05209">
        <ele>455</ele>
        <time>2000-1-1T5:55:07.000Z</time>
      </trkpt>
      <trkpt lat="44.20088" lon="5.05196">
        <ele>439.6</ele>
        <time>2000-1-1T5:55:17.000Z</time>
      </trkpt>
      <trkpt lat="44.20098" lon="5.05184">
        <ele>453</ele>
        <time>2000-1-1T5:55:27.000Z</time>
      </trkpt>
      <trkpt lat="44.20117" lon="5.05165">
        <ele>447</ele>
        <time>2000-1-1T5:55:37.000Z</time>
      </trkpt>
      <trkpt lat="44.20125" lon="5.05159">
        <ele>434.9</ele>
        <time>2000-1-1T5:55:47.000Z</time>
      </trkpt>
      <trkpt lat="44.20141" lon="5.05142">
        <ele>438</ele>
        <time>2000-1-1T5:55:57.000Z</time>
      </trkpt>
      <trkpt lat="44.20159" lon="5.05115">
        <ele>436</ele>
        <time>2000-1-1T5:56:07.000Z</time>
      </trkpt>
      <trkpt lat="44.20163" lon="5.05112">
        <ele>427.6</ele>
        <time>2000-1-1T5:56:17.000Z</time>
      </trkpt>
      <trkpt lat="44.20166" lon="5.05108">
        <ele>426.8</ele>
        <time>2000-1-1T5:56:27.000Z</time>
      </trkpt>
      <trkpt lat="44.20176" lon="5.05094">
        <ele>434</ele>
        <time>2000-1-1T5:56:37.000Z</time>
      </trkpt>
      <trkpt lat="44.20177" lon="5.05091">
        <ele>426</ele>
        <time>2000-1-1T5:56:47.000Z</time>
      </trkpt>
      <trkpt lat="44.20178" lon="5.05082">
        <ele>424.9</ele>
        <time>2000-1-1T5:56:57.000Z</time>
      </trkpt>
      <trkpt lat="44.20179" lon="5.05063">
        <ele>433</ele>
        <time>2000-1-1T5:57:07.000Z</time>
      </trkpt>
      <trkpt lat="44.20181" lon="5.05039">
        <ele>420.3</ele>
        <time>2000-1-1T5:57:17.000Z</time>
      </trkpt>
      <trkpt lat="44.2018" lon="5.05021">
        <ele>429</ele>
        <time>2000-1-1T5:57:27.000Z</time>
      </trkpt>
      <trkpt lat="44.20182" lon="5.0501">
        <ele>418.2</ele>
        <time>2000-1-1T5:57:37.000Z</time>
      </trkpt>
      <trkpt lat="44.20189" lon="5.05002">
        <ele>417</ele>
        <time>2000-1-1T5:57:47.000Z</time>
      </trkpt>
      <trkpt lat="44.20201" lon="5.04984">
        <ele>425</ele>
        <time>2000-1-1T5:57:57.000Z</time>
      </trkpt>
      <trkpt lat="44.20215" lon="5.0497">
        <ele>414.7</ele>
        <time>2000-1-1T5:58:07.000Z</time>
      </trkpt>
      <trkpt lat="44.20223" lon="5.04963">
        <ele>422</ele>
        <time>2000-1-1T5:58:17.000Z</time>
      </trkpt>
      <trkpt lat="44.20241" lon="5.04946">
        <ele>420</ele>
        <time>2000-1-1T5:58:27.000Z</time>
      </trkpt>
      <trkpt lat="44.20256" lon="5.04928">
        <ele>419</ele>
        <time>2000-1-1T5:58:37.000Z</time>
      </trkpt>
      <trkpt lat="44.20283" lon="5.04907">
        <ele>419</ele>
        <time>2000-1-1T5:58:47.000Z</time>
      </trkpt>
      <trkpt lat="44.20295" lon="5.04895">
        <ele>408.5</ele>
        <time>2000-1-1T5:58:57.000Z</time>
      </trkpt>
      <trkpt lat="44.20307" lon="5.04881">
        <ele>410</ele>
        <time>2000-1-1T5:59:07.000Z</time>
      </trkpt>
      <trkpt lat="44.20311" lon="5.04879">
        <ele>407</ele>
        <time>2000-1-1T5:59:17.000Z</time>
      </trkpt>
      <trkpt lat="44.20326" lon="5.04864">
        <ele>409</ele>
        <time>2000-1-1T5:59:27.000Z</time>
      </trkpt>
      <trkpt lat="44.20331" lon="5.04858">
        <ele>405.5</ele>
        <time>2000-1-1T5:59:37.000Z</time>
      </trkpt>
      <trkpt lat="44.20343" lon="5.04837">
        <ele>409</ele>
        <time>2000-1-1T5:59:47.000Z</time>
      </trkpt>
      <trkpt lat="44.20345" lon="5.04834">
        <ele>405.8</ele>
        <time>2000-1-1T5:59:57.000Z</time>
      </trkpt>
      <trkpt lat="44.20345" lon="5.04831">
        <ele>405.9</ele>
        <time>2000-1-1T6:00:07.000Z</time>
      </trkpt>
      <trkpt lat="44.20346" lon="5.0482">
        <ele>406.6</ele>
        <time>2000-1-1T6:00:17.000Z</time>
      </trkpt>
      <trkpt lat="44.20345" lon="5.04815">
        <ele>407.1</ele>
        <time>2000-1-1T6:00:27.000Z</time>
      </trkpt>
      <trkpt lat="44.20343" lon="5.04809">
        <ele>410</ele>
        <time>2000-1-1T6:00:37.000Z</time>
      </trkpt>
      <trkpt lat="44.20333" lon="5.04786">
        <ele>409.1</ele>
        <time>2000-1-1T6:00:47.000Z</time>
      </trkpt>
      <trkpt lat="44.20327" lon="5.04764">
        <ele>412</ele>
        <time>2000-1-1T6:00:57.000Z</time>
      </trkpt>
      <trkpt lat="44.2032" lon="5.0474">
        <ele>412.9</ele>
        <time>2000-1-1T6:01:07.000Z</time>
      </trkpt>
      <trkpt lat="44.20314" lon="5.04718">
        <ele>413</ele>
        <time>2000-1-1T6:01:17.000Z</time>
      </trkpt>
      <trkpt lat="44.20312" lon="5.04654">
        <ele>414</ele>
        <time>2000-1-1T6:01:27.000Z</time>
      </trkpt>
      <trkpt lat="44.20311" lon="5.04648">
        <ele>420.7</ele>
        <time>2000-1-1T6:01:37.000Z</time>
      </trkpt>
      <trkpt lat="44.20311" lon="5.04644">
        <ele>421</ele>
        <time>2000-1-1T6:01:47.000Z</time>
      </trkpt>
      <trkpt lat="44.2031" lon="5.0464">
        <ele>421.4</ele>
        <time>2000-1-1T6:01:57.000Z</time>
      </trkpt>
      <trkpt lat="44.20311" lon="5.0461">
        <ele>414</ele>
        <time>2000-1-1T6:02:07.000Z</time>
      </trkpt>
      <trkpt lat="44.20324" lon="5.046">
        <ele>422.3</ele>
        <time>2000-1-1T6:02:17.000Z</time>
      </trkpt>
      <trkpt lat="44.20328" lon="5.04599">
        <ele>422.2</ele>
        <time>2000-1-1T6:02:27.000Z</time>
      </trkpt>
      <trkpt lat="44.2033" lon="5.04597">
        <ele>420</ele>
        <time>2000-1-1T6:02:37.000Z</time>
      </trkpt>
      <trkpt lat="44.20331" lon="5.04593">
        <ele>422.1</ele>
        <time>2000-1-1T6:02:47.000Z</time>
      </trkpt>
      <trkpt lat="44.20332" lon="5.04583">
        <ele>422</ele>
        <time>2000-1-1T6:02:57.000Z</time>
      </trkpt>
      <trkpt lat="44.2033" lon="5.0457">
        <ele>420</ele>
        <time>2000-1-1T6:03:07.000Z</time>
      </trkpt>
      <trkpt lat="44.20321" lon="5.04515">
        <ele>419</ele>
        <time>2000-1-1T6:03:17.000Z</time>
      </trkpt>
      <trkpt lat="44.20315" lon="5.04491">
        <ele>416</ele>
        <time>2000-1-1T6:03:27.000Z</time>
      </trkpt>
      <trkpt lat="44.20307" lon="5.04464">
        <ele>418</ele>
        <time>2000-1-1T6:03:37.000Z</time>
      </trkpt>
      <trkpt lat="44.20301" lon="5.04439">
        <ele>410.8</ele>
        <time>2000-1-1T6:03:47.000Z</time>
      </trkpt>
      <trkpt lat="44.20294" lon="5.04405">
        <ele>412</ele>
        <time>2000-1-1T6:03:57.000Z</time>
      </trkpt>
      <trkpt lat="44.20288" lon="5.04366">
        <ele>409</ele>
        <time>2000-1-1T6:04:07.000Z</time>
      </trkpt>
      <trkpt lat="44.20288" lon="5.04358">
        <ele>406.4</ele>
        <time>2000-1-1T6:04:17.000Z</time>
      </trkpt>
      <trkpt lat="44.20289" lon="5.04351">
        <ele>406.6</ele>
        <time>2000-1-1T6:04:27.000Z</time>
      </trkpt>
      <trkpt lat="44.20293" lon="5.04342">
        <ele>406.6</ele>
        <time>2000-1-1T6:04:37.000Z</time>
      </trkpt>
      <trkpt lat="44.20302" lon="5.04325">
        <ele>407</ele>
        <time>2000-1-1T6:04:47.000Z</time>
      </trkpt>
      <trkpt lat="44.20305" lon="5.04319">
        <ele>407</ele>
        <time>2000-1-1T6:04:57.000Z</time>
      </trkpt>
      <trkpt lat="44.20308" lon="5.04313">
        <ele>407.3</ele>
        <time>2000-1-1T6:05:07.000Z</time>
      </trkpt>
      <trkpt lat="44.20311" lon="5.04302">
        <ele>407.7</ele>
        <time>2000-1-1T6:05:17.000Z</time>
      </trkpt>
      <trkpt lat="44.20323" lon="5.04247">
        <ele>407</ele>
        <time>2000-1-1T6:05:27.000Z</time>
      </trkpt>
      <trkpt lat="44.20328" lon="5.0423">
        <ele>407.5</ele>
        <time>2000-1-1T6:05:37.000Z</time>
      </trkpt>
      <trkpt lat="44.2033" lon="5.04223">
        <ele>407.1</ele>
        <time>2000-1-1T6:05:47.000Z</time>
      </trkpt>
      <trkpt lat="44.20332" lon="5.04196">
        <ele>407</ele>
        <time>2000-1-1T6:05:57.000Z</time>
      </trkpt>
      <trkpt lat="44.20334" lon="5.04189">
        <ele>404.1</ele>
        <time>2000-1-1T6:06:07.000Z</time>
      </trkpt>
      <trkpt lat="44.20338" lon="5.04184">
        <ele>403.1</ele>
        <time>2000-1-1T6:06:17.000Z</time>
      </trkpt>
      <trkpt lat="44.20345" lon="5.04178">
        <ele>402.2</ele>
        <time>2000-1-1T6:06:27.000Z</time>
      </trkpt>
      <trkpt lat="44.20376" lon="5.04159">
        <ele>400</ele>
        <time>2000-1-1T6:06:37.000Z</time>
      </trkpt>
      <trkpt lat="44.2038" lon="5.04155">
        <ele>398.8</ele>
        <time>2000-1-1T6:06:47.000Z</time>
      </trkpt>
      <trkpt lat="44.20393" lon="5.04136">
        <ele>398</ele>
        <time>2000-1-1T6:06:57.000Z</time>
      </trkpt>
      <trkpt lat="44.20401" lon="5.04122">
        <ele>396</ele>
        <time>2000-1-1T6:07:07.000Z</time>
      </trkpt>
      <trkpt lat="44.20416" lon="5.04087">
        <ele>399</ele>
        <time>2000-1-1T6:07:17.000Z</time>
      </trkpt>
      <trkpt lat="44.2042" lon="5.0406">
        <ele>401</ele>
        <time>2000-1-1T6:07:27.000Z</time>
      </trkpt>
      <trkpt lat="44.20424" lon="5.0405">
        <ele>399.1</ele>
        <time>2000-1-1T6:07:37.000Z</time>
      </trkpt>
      <trkpt lat="44.20423" lon="5.04052">
        <ele>398.7</ele>
        <time>2000-1-1T6:07:47.000Z</time>
      </trkpt>
      <trkpt lat="44.20423" lon="5.0404">
        <ele>400.7</ele>
        <time>2000-1-1T6:07:57.000Z</time>
      </trkpt>
      <trkpt lat="44.20419" lon="5.04031">
        <ele>398</ele>
        <time>2000-1-1T6:08:07.000Z</time>
      </trkpt>
      <trkpt lat="44.20416" lon="5.04027">
        <ele>402</ele>
        <time>2000-1-1T6:08:17.000Z</time>
      </trkpt>
      <trkpt lat="44.20409" lon="5.04011">
        <ele>403.7</ele>
        <time>2000-1-1T6:08:27.000Z</time>
      </trkpt>
      <trkpt lat="44.20407" lon="5.04002">
        <ele>398</ele>
        <time>2000-1-1T6:08:37.000Z</time>
      </trkpt>
      <trkpt lat="44.20402" lon="5.03975">
        <ele>398</ele>
        <time>2000-1-1T6:08:47.000Z</time>
      </trkpt>
      <trkpt lat="44.20402" lon="5.03973">
        <ele>405.8</ele>
        <time>2000-1-1T6:08:57.000Z</time>
      </trkpt>
      <trkpt lat="44.20409" lon="5.0395">
        <ele>408.8</ele>
        <time>2000-1-1T6:09:07.000Z</time>
      </trkpt>
      <trkpt lat="44.2042" lon="5.03923">
        <ele>403</ele>
        <time>2000-1-1T6:09:17.000Z</time>
      </trkpt>
      <trkpt lat="44.2043" lon="5.03912">
        <ele>414.1</ele>
        <time>2000-1-1T6:09:27.000Z</time>
      </trkpt>
      <trkpt lat="44.20434" lon="5.03904">
        <ele>404</ele>
        <time>2000-1-1T6:09:37.000Z</time>
      </trkpt>
      <trkpt lat="44.20441" lon="5.03896">
        <ele>414.9</ele>
        <time>2000-1-1T6:09:47.000Z</time>
      </trkpt>
      <trkpt lat="44.20448" lon="5.03889">
        <ele>415.4</ele>
        <time>2000-1-1T6:09:57.000Z</time>
      </trkpt>
      <trkpt lat="44.20465" lon="5.03878">
        <ele>405</ele>
        <time>2000-1-1T6:10:07.000Z</time>
      </trkpt>
      <trkpt lat="44.20491" lon="5.03865">
        <ele>414</ele>
        <time>2000-1-1T6:10:17.000Z</time>
      </trkpt>
      <trkpt lat="44.20507" lon="5.03854">
        <ele>421</ele>
        <time>2000-1-1T6:10:27.000Z</time>
      </trkpt>
      <trkpt lat="44.20513" lon="5.03849">
        <ele>414</ele>
        <time>2000-1-1T6:10:37.000Z</time>
      </trkpt>
      <trkpt lat="44.20517" lon="5.03844">
        <ele>422.1</ele>
        <time>2000-1-1T6:10:47.000Z</time>
      </trkpt>
      <trkpt lat="44.20528" lon="5.03833">
        <ele>415</ele>
        <time>2000-1-1T6:10:57.000Z</time>
      </trkpt>
      <trkpt lat="44.20537" lon="5.03822">
        <ele>423.4</ele>
        <time>2000-1-1T6:11:07.000Z</time>
      </trkpt>
      <trkpt lat="44.20545" lon="5.03808">
        <ele>417</ele>
        <time>2000-1-1T6:11:17.000Z</time>
      </trkpt>
      <trkpt lat="44.20547" lon="5.03802">
        <ele>422.8</ele>
        <time>2000-1-1T6:11:27.000Z</time>
      </trkpt>
      <trkpt lat="44.20549" lon="5.03792">
        <ele>422.5</ele>
        <time>2000-1-1T6:11:37.000Z</time>
      </trkpt>
      <trkpt lat="44.20553" lon="5.03729">
        <ele>423</ele>
        <time>2000-1-1T6:11:47.000Z</time>
      </trkpt>
      <trkpt lat="44.20557" lon="5.03717">
        <ele>422.4</ele>
        <time>2000-1-1T6:11:57.000Z</time>
      </trkpt>
      <trkpt lat="44.20561" lon="5.03709">
        <ele>422.9</ele>
        <time>2000-1-1T6:12:07.000Z</time>
      </trkpt>
      <trkpt lat="44.20566" lon="5.03702">
        <ele>423</ele>
        <time>2000-1-1T6:12:17.000Z</time>
      </trkpt>
      <trkpt lat="44.20575" lon="5.03694">
        <ele>423.3</ele>
        <time>2000-1-1T6:12:27.000Z</time>
      </trkpt>
      <trkpt lat="44.20593" lon="5.03683">
        <ele>421</ele>
        <time>2000-1-1T6:12:37.000Z</time>
      </trkpt>
      <trkpt lat="44.20611" lon="5.03672">
        <ele>421</ele>
        <time>2000-1-1T6:12:47.000Z</time>
      </trkpt>
      <trkpt lat="44.20626" lon="5.03662">
        <ele>421.1</ele>
        <time>2000-1-1T6:12:57.000Z</time>
      </trkpt>
      <trkpt lat="44.20643" lon="5.03644">
        <ele>421</ele>
        <time>2000-1-1T6:13:07.000Z</time>
      </trkpt>
      <trkpt lat="44.20656" lon="5.03635">
        <ele>419.2</ele>
        <time>2000-1-1T6:13:17.000Z</time>
      </trkpt>
      <trkpt lat="44.2066" lon="5.03633">
        <ele>418</ele>
        <time>2000-1-1T6:13:27.000Z</time>
      </trkpt>
      <trkpt lat="44.2069" lon="5.03631">
        <ele>419</ele>
        <time>2000-1-1T6:13:37.000Z</time>
      </trkpt>
      <trkpt lat="44.20717" lon="5.03633">
        <ele>420</ele>
        <time>2000-1-1T6:13:47.000Z</time>
      </trkpt>
      <trkpt lat="44.20744" lon="5.03625">
        <ele>418</ele>
        <time>2000-1-1T6:13:57.000Z</time>
      </trkpt>
      <trkpt lat="44.20774" lon="5.03619">
        <ele>417</ele>
        <time>2000-1-1T6:14:07.000Z</time>
      </trkpt>
      <trkpt lat="44.20785" lon="5.03618">
        <ele>409.1</ele>
        <time>2000-1-1T6:14:17.000Z</time>
      </trkpt>
      <trkpt lat="44.20809" lon="5.03619">
        <ele>414</ele>
        <time>2000-1-1T6:14:27.000Z</time>
      </trkpt>
      <trkpt lat="44.20841" lon="5.03623">
        <ele>412</ele>
        <time>2000-1-1T6:14:37.000Z</time>
      </trkpt>
      <trkpt lat="44.20867" lon="5.03622">
        <ele>410</ele>
        <time>2000-1-1T6:14:47.000Z</time>
      </trkpt>
      <trkpt lat="44.209" lon="5.03613">
        <ele>406</ele>
        <time>2000-1-1T6:14:57.000Z</time>
      </trkpt>
      <trkpt lat="44.20926" lon="5.03605">
        <ele>402</ele>
        <time>2000-1-1T6:15:07.000Z</time>
      </trkpt>
      <trkpt lat="44.20952" lon="5.03601">
        <ele>397</ele>
        <time>2000-1-1T6:15:17.000Z</time>
      </trkpt>
      <trkpt lat="44.2098" lon="5.03597">
        <ele>395</ele>
        <time>2000-1-1T6:15:27.000Z</time>
      </trkpt>
      <trkpt lat="44.20993" lon="5.03592">
        <ele>398.6</ele>
        <time>2000-1-1T6:15:37.000Z</time>
      </trkpt>
      <trkpt lat="44.21008" lon="5.03583">
        <ele>392</ele>
        <time>2000-1-1T6:15:47.000Z</time>
      </trkpt>
      <trkpt lat="44.21036" lon="5.03568">
        <ele>387</ele>
        <time>2000-1-1T6:15:57.000Z</time>
      </trkpt>
      <trkpt lat="44.2104" lon="5.03565">
        <ele>392.8</ele>
        <time>2000-1-1T6:16:07.000Z</time>
      </trkpt>
      <trkpt lat="44.2106" lon="5.03556">
        <ele>384</ele>
        <time>2000-1-1T6:16:17.000Z</time>
      </trkpt>
      <trkpt lat="44.21097" lon="5.03533">
        <ele>381</ele>
        <time>2000-1-1T6:16:27.000Z</time>
      </trkpt>
      <trkpt lat="44.2112" lon="5.03521">
        <ele>382</ele>
        <time>2000-1-1T6:16:37.000Z</time>
      </trkpt>
      <trkpt lat="44.21143" lon="5.0352">
        <ele>383</ele>
        <time>2000-1-1T6:16:47.000Z</time>
      </trkpt>
      <trkpt lat="44.21169" lon="5.03544">
        <ele>383</ele>
        <time>2000-1-1T6:16:57.000Z</time>
      </trkpt>
      <trkpt lat="44.21182" lon="5.03559">
        <ele>381.6</ele>
        <time>2000-1-1T6:17:07.000Z</time>
      </trkpt>
      <trkpt lat="44.21186" lon="5.03569">
        <ele>383</ele>
        <time>2000-1-1T6:17:17.000Z</time>
      </trkpt>
      <trkpt lat="44.21197" lon="5.03578">
        <ele>378.3</ele>
        <time>2000-1-1T6:17:27.000Z</time>
      </trkpt>
      <trkpt lat="44.21199" lon="5.03579">
        <ele>377.9</ele>
        <time>2000-1-1T6:17:37.000Z</time>
      </trkpt>
      <trkpt lat="44.21216" lon="5.03585">
        <ele>372</ele>
        <time>2000-1-1T6:17:47.000Z</time>
      </trkpt>
      <trkpt lat="44.21224" lon="5.03587">
        <ele>374.1</ele>
        <time>2000-1-1T6:17:57.000Z</time>
      </trkpt>
      <trkpt lat="44.21236" lon="5.03585">
        <ele>372</ele>
        <time>2000-1-1T6:18:07.000Z</time>
      </trkpt>
      <trkpt lat="44.21258" lon="5.03566">
        <ele>368</ele>
        <time>2000-1-1T6:18:17.000Z</time>
      </trkpt>
      <trkpt lat="44.21278" lon="5.03545">
        <ele>363</ele>
        <time>2000-1-1T6:18:27.000Z</time>
      </trkpt>
      <trkpt lat="44.21306" lon="5.03509">
        <ele>363</ele>
        <time>2000-1-1T6:18:37.000Z</time>
      </trkpt>
      <trkpt lat="44.21307" lon="5.03504">
        <ele>363.5</ele>
        <time>2000-1-1T6:18:47.000Z</time>
      </trkpt>
      <trkpt lat="44.21307" lon="5.03501">
        <ele>363.1</ele>
        <time>2000-1-1T6:18:57.000Z</time>
      </trkpt>
      <trkpt lat="44.21301" lon="5.03486">
        <ele>364.5</ele>
        <time>2000-1-1T6:19:07.000Z</time>
      </trkpt>
      <trkpt lat="44.213" lon="5.03483">
        <ele>361</ele>
        <time>2000-1-1T6:19:17.000Z</time>
      </trkpt>
      <trkpt lat="44.213" lon="5.03473">
        <ele>365.3</ele>
        <time>2000-1-1T6:19:27.000Z</time>
      </trkpt>
      <trkpt lat="44.21301" lon="5.0347">
        <ele>365</ele>
        <time>2000-1-1T6:19:37.000Z</time>
      </trkpt>
      <trkpt lat="44.2131" lon="5.03455">
        <ele>359</ele>
        <time>2000-1-1T6:19:47.000Z</time>
      </trkpt>
      <trkpt lat="44.21323" lon="5.03428">
        <ele>356</ele>
        <time>2000-1-1T6:19:57.000Z</time>
      </trkpt>
      <trkpt lat="44.21333" lon="5.03414">
        <ele>355.9</ele>
        <time>2000-1-1T6:20:07.000Z</time>
      </trkpt>
      <trkpt lat="44.21336" lon="5.03393">
        <ele>353</ele>
        <time>2000-1-1T6:20:17.000Z</time>
      </trkpt>
      <trkpt lat="44.21335" lon="5.03385">
        <ele>353.1</ele>
        <time>2000-1-1T6:20:27.000Z</time>
      </trkpt>
      <trkpt lat="44.21329" lon="5.0337">
        <ele>352.2</ele>
        <time>2000-1-1T6:20:37.000Z</time>
      </trkpt>
      <trkpt lat="44.21329" lon="5.03367">
        <ele>352</ele>
        <time>2000-1-1T6:20:47.000Z</time>
      </trkpt>
      <trkpt lat="44.21331" lon="5.0336">
        <ele>349.7</ele>
        <time>2000-1-1T6:20:57.000Z</time>
      </trkpt>
      <trkpt lat="44.21333" lon="5.03357">
        <ele>348.9</ele>
        <time>2000-1-1T6:21:07.000Z</time>
      </trkpt>
      <trkpt lat="44.21336" lon="5.03349">
        <ele>348.3</ele>
        <time>2000-1-1T6:21:17.000Z</time>
      </trkpt>
      <trkpt lat="44.21338" lon="5.03336">
        <ele>352</ele>
        <time>2000-1-1T6:21:27.000Z</time>
      </trkpt>
      <trkpt lat="44.21339" lon="5.03328">
        <ele>346.7</ele>
        <time>2000-1-1T6:21:37.000Z</time>
      </trkpt>
      <trkpt lat="44.21347" lon="5.03293">
        <ele>349</ele>
        <time>2000-1-1T6:21:47.000Z</time>
      </trkpt>
      <trkpt lat="44.21349" lon="5.03269">
        <ele>339.8</ele>
        <time>2000-1-1T6:21:57.000Z</time>
      </trkpt>
      <trkpt lat="44.21364" lon="5.03225">
        <ele>333</ele>
        <time>2000-1-1T6:22:07.000Z</time>
      </trkpt>
      <trkpt lat="44.21372" lon="5.03191">
        <ele>328</ele>
        <time>2000-1-1T6:22:17.000Z</time>
      </trkpt>
      <trkpt lat="44.21374" lon="5.03179">
        <ele>329</ele>
        <time>2000-1-1T6:22:27.000Z</time>
      </trkpt>
      <trkpt lat="44.21373" lon="5.03169">
        <ele>328.1</ele>
        <time>2000-1-1T6:22:37.000Z</time>
      </trkpt>
      <trkpt lat="44.21365" lon="5.0314">
        <ele>316</ele>
        <time>2000-1-1T6:22:47.000Z</time>
      </trkpt>
      <trkpt lat="44.21363" lon="5.03132">
        <ele>323.3</ele>
        <time>2000-1-1T6:22:57.000Z</time>
      </trkpt>
      <trkpt lat="44.21361" lon="5.03125">
        <ele>322</ele>
        <time>2000-1-1T6:23:07.000Z</time>
      </trkpt>
      <trkpt lat="44.21352" lon="5.03112">
        <ele>312</ele>
        <time>2000-1-1T6:23:17.000Z</time>
      </trkpt>
      <trkpt lat="44.21348" lon="5.03108">
        <ele>319.6</ele>
        <time>2000-1-1T6:23:27.000Z</time>
      </trkpt>
      <trkpt lat="44.21339" lon="5.03095">
        <ele>316.7</ele>
        <time>2000-1-1T6:23:37.000Z</time>
      </trkpt>
      <trkpt lat="44.21328" lon="5.03084">
        <ele>311</ele>
        <time>2000-1-1T6:23:47.000Z</time>
      </trkpt>
      <trkpt lat="44.21325" lon="5.03078">
        <ele>311.4</ele>
        <time>2000-1-1T6:23:57.000Z</time>
      </trkpt>
      <trkpt lat="44.21317" lon="5.03064">
        <ele>307.4</ele>
        <time>2000-1-1T6:24:07.000Z</time>
      </trkpt>
      <trkpt lat="44.21319" lon="5.03058">
        <ele>304</ele>
        <time>2000-1-1T6:24:17.000Z</time>
      </trkpt>
      <trkpt lat="44.21319" lon="5.03055">
        <ele>304.8</ele>
        <time>2000-1-1T6:24:27.000Z</time>
      </trkpt>
      <trkpt lat="44.21302" lon="5.0305">
        <ele>300</ele>
        <time>2000-1-1T6:24:37.000Z</time>
      </trkpt>
      <trkpt lat="44.21301" lon="5.03049">
        <ele>302.9</ele>
        <time>2000-1-1T6:24:47.000Z</time>
      </trkpt>
      <trkpt lat="44.21302" lon="5.03045">
        <ele>301.8</ele>
        <time>2000-1-1T6:24:57.000Z</time>
      </trkpt>
      <trkpt lat="44.21304" lon="5.03043">
        <ele>301.4</ele>
        <time>2000-1-1T6:25:07.000Z</time>
      </trkpt>
      <trkpt lat="44.21307" lon="5.03041">
        <ele>301</ele>
        <time>2000-1-1T6:25:17.000Z</time>
      </trkpt>
      <trkpt lat="44.21313" lon="5.03041">
        <ele>301</ele>
        <time>2000-1-1T6:25:27.000Z</time>
      </trkpt>
      <trkpt lat="44.21317" lon="5.03039">
        <ele>300</ele>
        <time>2000-1-1T6:25:37.000Z</time>
      </trkpt>
      <trkpt lat="44.21318" lon="5.03036">
        <ele>300</ele>
        <time>2000-1-1T6:25:47.000Z</time>
      </trkpt>
      <trkpt lat="44.21317" lon="5.03032">
        <ele>298.9</ele>
        <time>2000-1-1T6:25:57.000Z</time>
      </trkpt>
      <trkpt lat="44.21304" lon="5.03028">
        <ele>297</ele>
        <time>2000-1-1T6:26:07.000Z</time>
      </trkpt>
      <trkpt lat="44.21285" lon="5.03026">
        <ele>297</ele>
        <time>2000-1-1T6:26:17.000Z</time>
      </trkpt>
      <trkpt lat="44.21267" lon="5.03021">
        <ele>294.4</ele>
        <time>2000-1-1T6:26:27.000Z</time>
      </trkpt>
      <trkpt lat="44.21247" lon="5.03007">
        <ele>291</ele>
        <time>2000-1-1T6:26:37.000Z</time>
      </trkpt>
      <trkpt lat="44.21238" lon="5.03">
        <ele>289.5</ele>
        <time>2000-1-1T6:26:47.000Z</time>
      </trkpt>
      <trkpt lat="44.21224" lon="5.02993">
        <ele>290</ele>
        <time>2000-1-1T6:26:57.000Z</time>
      </trkpt>
      <trkpt lat="44.21185" lon="5.0298">
        <ele>286</ele>
        <time>2000-1-1T6:27:07.000Z</time>
      </trkpt>
      <trkpt lat="44.21167" lon="5.02976">
        <ele>284.7</ele>
        <time>2000-1-1T6:27:17.000Z</time>
      </trkpt>
      <trkpt lat="44.2115" lon="5.02974">
        <ele>286</ele>
        <time>2000-1-1T6:27:27.000Z</time>
      </trkpt>
      <trkpt lat="44.21129" lon="5.02976">
        <ele>286</ele>
        <time>2000-1-1T6:27:37.000Z</time>
      </trkpt>
      <trkpt lat="44.21108" lon="5.02976">
        <ele>286</ele>
        <time>2000-1-1T6:27:47.000Z</time>
      </trkpt>
      <trkpt lat="44.21087" lon="5.02975">
        <ele>286</ele>
        <time>2000-1-1T6:27:57.000Z</time>
      </trkpt>
      <trkpt lat="44.21073" lon="5.0297">
        <ele>278.8</ele>
        <time>2000-1-1T6:28:07.000Z</time>
      </trkpt>
      <trkpt lat="44.21068" lon="5.02969">
        <ele>285</ele>
        <time>2000-1-1T6:28:17.000Z</time>
      </trkpt>
      <trkpt lat="44.2105" lon="5.02961">
        <ele>276.8</ele>
        <time>2000-1-1T6:28:27.000Z</time>
      </trkpt>
      <trkpt lat="44.21042" lon="5.02956">
        <ele>285</ele>
        <time>2000-1-1T6:28:37.000Z</time>
      </trkpt>
      <trkpt lat="44.21022" lon="5.02948">
        <ele>285</ele>
        <time>2000-1-1T6:28:47.000Z</time>
      </trkpt>
      <trkpt lat="44.21019" lon="5.02948">
        <ele>274.5</ele>
        <time>2000-1-1T6:28:57.000Z</time>
      </trkpt>
      <trkpt lat="44.21012" lon="5.02946">
        <ele>273.7</ele>
        <time>2000-1-1T6:29:07.000Z</time>
      </trkpt>
      <trkpt lat="44.20975" lon="5.02939">
        <ele>282</ele>
        <time>2000-1-1T6:29:17.000Z</time>
      </trkpt>
      <trkpt lat="44.20966" lon="5.02938">
        <ele>270.9</ele>
        <time>2000-1-1T6:29:27.000Z</time>
      </trkpt>
      <trkpt lat="44.20945" lon="5.02933">
        <ele>273</ele>
        <time>2000-1-1T6:29:37.000Z</time>
      </trkpt>
      <trkpt lat="44.20921" lon="5.02926">
        <ele>268</ele>
        <time>2000-1-1T6:29:47.000Z</time>
      </trkpt>
      <trkpt lat="44.20907" lon="5.02921">
        <ele>263.8</ele>
        <time>2000-1-1T6:29:57.000Z</time>
      </trkpt>
      <trkpt lat="44.20898" lon="5.02916">
        <ele>263</ele>
        <time>2000-1-1T6:30:07.000Z</time>
      </trkpt>
      <trkpt lat="44.20888" lon="5.0291">
        <ele>262.7</ele>
        <time>2000-1-1T6:30:17.000Z</time>
      </trkpt>
      <trkpt lat="44.20887" lon="5.02909">
        <ele>262.8</ele>
        <time>2000-1-1T6:30:27.000Z</time>
      </trkpt>
      <trkpt lat="44.20885" lon="5.02906">
        <ele>263</ele>
        <time>2000-1-1T6:30:37.000Z</time>
      </trkpt>
      <trkpt lat="44.20877" lon="5.02884">
        <ele>261</ele>
        <time>2000-1-1T6:30:47.000Z</time>
      </trkpt>
      <trkpt lat="44.20863" lon="5.02858">
        <ele>261</ele>
        <time>2000-1-1T6:30:57.000Z</time>
      </trkpt>
      <trkpt lat="44.20848" lon="5.02823">
        <ele>257</ele>
        <time>2000-1-1T6:31:07.000Z</time>
      </trkpt>
      <trkpt lat="44.20846" lon="5.02816">
        <ele>261.1</ele>
        <time>2000-1-1T6:31:17.000Z</time>
      </trkpt>
      <trkpt lat="44.20846" lon="5.02805">
        <ele>261.1</ele>
        <time>2000-1-1T6:31:27.000Z</time>
      </trkpt>
      <trkpt lat="44.20847" lon="5.02795">
        <ele>256</ele>
        <time>2000-1-1T6:31:37.000Z</time>
      </trkpt>
      <trkpt lat="44.2085" lon="5.0279">
        <ele>260.3</ele>
        <time>2000-1-1T6:31:47.000Z</time>
      </trkpt>
      <trkpt lat="44.20854" lon="5.02783">
        <ele>260.4</ele>
        <time>2000-1-1T6:31:57.000Z</time>
      </trkpt>
      <trkpt lat="44.20857" lon="5.02777">
        <ele>259.8</ele>
        <time>2000-1-1T6:32:07.000Z</time>
      </trkpt>
      <trkpt lat="44.2086" lon="5.02763">
        <ele>256</ele>
        <time>2000-1-1T6:32:17.000Z</time>
      </trkpt>
      <trkpt lat="44.2086" lon="5.02741">
        <ele>258.1</ele>
        <time>2000-1-1T6:32:27.000Z</time>
      </trkpt>
      <trkpt lat="44.20856" lon="5.02721">
        <ele>252</ele>
        <time>2000-1-1T6:32:37.000Z</time>
      </trkpt>
      <trkpt lat="44.20846" lon="5.02692">
        <ele>248</ele>
        <time>2000-1-1T6:32:47.000Z</time>
      </trkpt>
      <trkpt lat="44.20843" lon="5.02672">
        <ele>256.6</ele>
        <time>2000-1-1T6:32:57.000Z</time>
      </trkpt>
      <trkpt lat="44.20839" lon="5.02647">
        <ele>246</ele>
        <time>2000-1-1T6:33:07.000Z</time>
      </trkpt>
      <trkpt lat="44.20837" lon="5.02635">
        <ele>251.1</ele>
        <time>2000-1-1T6:33:17.000Z</time>
      </trkpt>
      <trkpt lat="44.20836" lon="5.0262">
        <ele>246</ele>
        <time>2000-1-1T6:33:27.000Z</time>
      </trkpt>
      <trkpt lat="44.20835" lon="5.02601">
        <ele>248.5</ele>
        <time>2000-1-1T6:33:37.000Z</time>
      </trkpt>
      <trkpt lat="44.20831" lon="5.02581">
        <ele>245</ele>
        <time>2000-1-1T6:33:47.000Z</time>
      </trkpt>
      <trkpt lat="44.2083" lon="5.0257">
        <ele>246.7</ele>
        <time>2000-1-1T6:33:57.000Z</time>
      </trkpt>
      <trkpt lat="44.20827" lon="5.02546">
        <ele>244</ele>
        <time>2000-1-1T6:34:07.000Z</time>
      </trkpt>
      <trkpt lat="44.20823" lon="5.02522">
        <ele>243.8</ele>
        <time>2000-1-1T6:34:17.000Z</time>
      </trkpt>
      <trkpt lat="44.20819" lon="5.02498">
        <ele>241</ele>
        <time>2000-1-1T6:34:27.000Z</time>
      </trkpt>
      <trkpt lat="44.20817" lon="5.02478">
        <ele>237.7</ele>
        <time>2000-1-1T6:34:37.000Z</time>
      </trkpt>
      <trkpt lat="44.20817" lon="5.02472">
        <ele>238</ele>
        <time>2000-1-1T6:34:47.000Z</time>
      </trkpt>
    </trkseg>
  </trk>
</gpx>